<?xml version="1.0" encoding="UTF-8" standalone="no" ?>
<gpx xmlns="http://www.topografix.com/GPX/1/1" xmlns:xsi="http://www.w3.org/2001/XMLSchema-instance" xsi:schemaLocation="http://www.topografix.com/GPX/1/1 http://www.topografix.com/GPX/1/1/gpx.xsd" version="1.1" creator="VisuGPX - https://www.visugpx.com">
  <metadata>
    <name>1 OCEAN MEDITERRANEE CRAVEN</name>
    <desc><![CDATA[ETAPE 1 DE SAUTATS A LABADAN 121KM 173M+]]></desc>
  </metadata>
  <trk>
    <name><![CDATA[20180904163205-gbngV]]></name>
    <trkseg>
      <trkpt lat="44.65466" lon="-0.59891">
        <ele>56</ele>
        <time>2018-09-03T17:55:59.000Z</time>
      </trkpt>
      <trkpt lat="44.65426" lon="-0.59916">
        <ele>57</ele>
        <time>2018-09-03T17:55:59.696Z</time>
      </trkpt>
      <trkpt lat="44.6539" lon="-0.59937">
        <ele>58</ele>
        <time>2018-09-03T17:56:00.328Z</time>
      </trkpt>
      <trkpt lat="44.65287" lon="-0.59759">
        <ele>54</ele>
        <time>2018-09-03T17:56:02.941Z</time>
      </trkpt>
      <trkpt lat="44.65216" lon="-0.59789">
        <ele>52</ele>
        <time>2018-09-03T17:56:04.133Z</time>
      </trkpt>
      <trkpt lat="44.65216" lon="-0.59789">
        <ele>52</ele>
        <time>2018-09-03T17:56:04.133Z</time>
      </trkpt>
      <trkpt lat="44.65212" lon="-0.59815">
        <ele>52</ele>
        <time>2018-09-03T17:56:04.437Z</time>
      </trkpt>
      <trkpt lat="44.65155" lon="-0.60001">
        <ele>55</ele>
        <time>2018-09-03T17:56:06.747Z</time>
      </trkpt>
      <trkpt lat="44.65162" lon="-0.60016">
        <ele>55</ele>
        <time>2018-09-03T17:56:06.947Z</time>
      </trkpt>
      <trkpt lat="44.65151" lon="-0.60023">
        <ele>56</ele>
        <time>2018-09-03T17:56:07.144Z</time>
      </trkpt>
      <trkpt lat="44.65135" lon="-0.60069">
        <ele>58</ele>
        <time>2018-09-03T17:56:07.730Z</time>
      </trkpt>
      <trkpt lat="44.65123" lon="-0.60134">
        <ele>59</ele>
        <time>2018-09-03T17:56:08.494Z</time>
      </trkpt>
      <trkpt lat="44.65116" lon="-0.60246">
        <ele>57</ele>
        <time>2018-09-03T17:56:09.771Z</time>
      </trkpt>
      <trkpt lat="44.65117" lon="-0.60306">
        <ele>56</ele>
        <time>2018-09-03T17:56:10.456Z</time>
      </trkpt>
      <trkpt lat="44.65143" lon="-0.60573">
        <ele>55</ele>
        <time>2018-09-03T17:56:13.529Z</time>
      </trkpt>
      <trkpt lat="44.65142" lon="-0.60614">
        <ele>55</ele>
        <time>2018-09-03T17:56:14.000Z</time>
      </trkpt>
      <trkpt lat="44.65117" lon="-0.60706">
        <ele>55</ele>
        <time>2018-09-03T17:56:15.124Z</time>
      </trkpt>
      <trkpt lat="44.65079" lon="-0.60787">
        <ele>51</ele>
        <time>2018-09-03T17:56:16.231Z</time>
      </trkpt>
      <trkpt lat="44.65033" lon="-0.60844">
        <ele>51</ele>
        <time>2018-09-03T17:56:17.211Z</time>
      </trkpt>
      <trkpt lat="44.65033" lon="-0.60844">
        <ele>51</ele>
        <time>2018-09-03T17:56:17.211Z</time>
      </trkpt>
      <trkpt lat="44.6489" lon="-0.60954">
        <ele>54</ele>
        <time>2018-09-03T17:56:19.827Z</time>
      </trkpt>
      <trkpt lat="44.64867" lon="-0.60982">
        <ele>54</ele>
        <time>2018-09-03T17:56:20.315Z</time>
      </trkpt>
      <trkpt lat="44.64867" lon="-0.60982">
        <ele>54</ele>
        <time>2018-09-03T17:56:20.315Z</time>
      </trkpt>
      <trkpt lat="44.64843" lon="-0.61034">
        <ele>56</ele>
        <time>2018-09-03T17:56:21.019Z</time>
      </trkpt>
      <trkpt lat="44.64411" lon="-0.62956">
        <ele>63</ele>
        <time>2018-09-03T17:56:44.017Z</time>
      </trkpt>
      <trkpt lat="44.64393" lon="-0.63011">
        <ele>63</ele>
        <time>2018-09-03T17:56:44.697Z</time>
      </trkpt>
      <trkpt lat="44.64202" lon="-0.63451">
        <ele>66</ele>
        <time>2018-09-03T17:56:50.584Z</time>
      </trkpt>
      <trkpt lat="44.64202" lon="-0.63451">
        <ele>66</ele>
        <time>2018-09-03T17:56:50.584Z</time>
      </trkpt>
      <trkpt lat="44.63677" lon="-0.64657">
        <ele>65</ele>
        <time>2018-09-03T17:57:06.713Z</time>
      </trkpt>
      <trkpt lat="44.63501" lon="-0.65047">
        <ele>69</ele>
        <time>2018-09-03T17:57:11.985Z</time>
      </trkpt>
      <trkpt lat="44.63252" lon="-0.65419">
        <ele>69</ele>
        <time>2018-09-03T17:57:17.808Z</time>
      </trkpt>
      <trkpt lat="44.62016" lon="-0.67217">
        <ele>71</ele>
        <time>2018-09-03T17:57:46.320Z</time>
      </trkpt>
      <trkpt lat="44.61737" lon="-0.67625">
        <ele>69</ele>
        <time>2018-09-03T17:57:52.777Z</time>
      </trkpt>
      <trkpt lat="44.6146" lon="-0.68107">
        <ele>71</ele>
        <time>2018-09-03T17:57:59.847Z</time>
      </trkpt>
      <trkpt lat="44.6146" lon="-0.68107">
        <ele>71</ele>
        <time>2018-09-03T17:57:59.847Z</time>
      </trkpt>
      <trkpt lat="44.61452" lon="-0.68121">
        <ele>72</ele>
        <time>2018-09-03T17:58:00.052Z</time>
      </trkpt>
      <trkpt lat="44.61304" lon="-0.68386">
        <ele>73</ele>
        <time>2018-09-03T17:58:03.892Z</time>
      </trkpt>
      <trkpt lat="44.61009" lon="-0.68903">
        <ele>73</ele>
        <time>2018-09-03T17:58:11.461Z</time>
      </trkpt>
      <trkpt lat="44.60592" lon="-0.69636">
        <ele>73</ele>
        <time>2018-09-03T17:58:22.166Z</time>
      </trkpt>
      <trkpt lat="44.60234" lon="-0.70272">
        <ele>78</ele>
        <time>2018-09-03T17:58:31.430Z</time>
      </trkpt>
      <trkpt lat="44.59507" lon="-0.71553">
        <ele>81</ele>
        <time>2018-09-03T17:58:50.128Z</time>
      </trkpt>
      <trkpt lat="44.59354" lon="-0.71833">
        <ele>82</ele>
        <time>2018-09-03T17:58:54.151Z</time>
      </trkpt>
      <trkpt lat="44.59325" lon="-0.71924">
        <ele>81</ele>
        <time>2018-09-03T17:58:55.291Z</time>
      </trkpt>
      <trkpt lat="44.59322" lon="-0.71937">
        <ele>81</ele>
        <time>2018-09-03T17:58:55.450Z</time>
      </trkpt>
      <trkpt lat="44.59322" lon="-0.71937">
        <ele>81</ele>
        <time>2018-09-03T17:58:55.450Z</time>
      </trkpt>
      <trkpt lat="44.59314" lon="-0.7206">
        <ele>82</ele>
        <time>2018-09-03T17:58:56.852Z</time>
      </trkpt>
      <trkpt lat="44.59331" lon="-0.72329">
        <ele>78</ele>
        <time>2018-09-03T17:58:59.938Z</time>
      </trkpt>
      <trkpt lat="44.59331" lon="-0.72329">
        <ele>78</ele>
        <time>2018-09-03T17:58:59.938Z</time>
      </trkpt>
      <trkpt lat="44.59346" lon="-0.72589">
        <ele>81</ele>
        <time>2018-09-03T17:59:02.919Z</time>
      </trkpt>
      <trkpt lat="44.59352" lon="-0.72837">
        <ele>80</ele>
        <time>2018-09-03T17:59:05.744Z</time>
      </trkpt>
      <trkpt lat="44.59352" lon="-0.72929">
        <ele>80</ele>
        <time>2018-09-03T17:59:06.803Z</time>
      </trkpt>
      <trkpt lat="44.59352" lon="-0.7297">
        <ele>79</ele>
        <time>2018-09-03T17:59:07.268Z</time>
      </trkpt>
      <trkpt lat="44.59358" lon="-0.7312">
        <ele>80</ele>
        <time>2018-09-03T17:59:08.985Z</time>
      </trkpt>
      <trkpt lat="44.5936" lon="-0.73271">
        <ele>83</ele>
        <time>2018-09-03T17:59:10.706Z</time>
      </trkpt>
      <trkpt lat="44.59353" lon="-0.73603">
        <ele>81</ele>
        <time>2018-09-03T17:59:14.492Z</time>
      </trkpt>
      <trkpt lat="44.59353" lon="-0.73608">
        <ele>81</ele>
        <time>2018-09-03T17:59:14.559Z</time>
      </trkpt>
      <trkpt lat="44.59337" lon="-0.74042">
        <ele>79</ele>
        <time>2018-09-03T17:59:19.520Z</time>
      </trkpt>
      <trkpt lat="44.59337" lon="-0.74042">
        <ele>79</ele>
        <time>2018-09-03T17:59:19.520Z</time>
      </trkpt>
      <trkpt lat="44.59331" lon="-0.74371">
        <ele>80</ele>
        <time>2018-09-03T17:59:23.269Z</time>
      </trkpt>
      <trkpt lat="44.59473" lon="-0.75002">
        <ele>77</ele>
        <time>2018-09-03T17:59:30.829Z</time>
      </trkpt>
      <trkpt lat="44.59522" lon="-0.75212">
        <ele>75</ele>
        <time>2018-09-03T17:59:33.348Z</time>
      </trkpt>
      <trkpt lat="44.59533" lon="-0.75253">
        <ele>76</ele>
        <time>2018-09-03T17:59:33.853Z</time>
      </trkpt>
      <trkpt lat="44.59538" lon="-0.75267">
        <ele>76</ele>
        <time>2018-09-03T17:59:34.029Z</time>
      </trkpt>
      <trkpt lat="44.59586" lon="-0.75367">
        <ele>76</ele>
        <time>2018-09-03T17:59:35.402Z</time>
      </trkpt>
      <trkpt lat="44.59635" lon="-0.75443">
        <ele>75</ele>
        <time>2018-09-03T17:59:36.573Z</time>
      </trkpt>
      <trkpt lat="44.59775" lon="-0.75632">
        <ele>75</ele>
        <time>2018-09-03T17:59:39.700Z</time>
      </trkpt>
      <trkpt lat="44.59848" lon="-0.7573">
        <ele>75</ele>
        <time>2018-09-03T17:59:41.316Z</time>
      </trkpt>
      <trkpt lat="44.59848" lon="-0.7573">
        <ele>75</ele>
        <time>2018-09-03T17:59:41.318Z</time>
      </trkpt>
      <trkpt lat="44.59917" lon="-0.75822">
        <ele>74</ele>
        <time>2018-09-03T17:59:42.837Z</time>
      </trkpt>
      <trkpt lat="44.59947" lon="-0.75857">
        <ele>74</ele>
        <time>2018-09-03T17:59:43.466Z</time>
      </trkpt>
      <trkpt lat="44.59955" lon="-0.75853">
        <ele>74</ele>
        <time>2018-09-03T17:59:43.596Z</time>
      </trkpt>
      <trkpt lat="44.59966" lon="-0.75862">
        <ele>74</ele>
        <time>2018-09-03T17:59:43.812Z</time>
      </trkpt>
      <trkpt lat="44.59966" lon="-0.75882">
        <ele>74</ele>
        <time>2018-09-03T17:59:44.039Z</time>
      </trkpt>
      <trkpt lat="44.59975" lon="-0.75894">
        <ele>74</ele>
        <time>2018-09-03T17:59:44.236Z</time>
      </trkpt>
      <trkpt lat="44.60174" lon="-0.7617">
        <ele>74</ele>
        <time>2018-09-03T17:59:48.716Z</time>
      </trkpt>
      <trkpt lat="44.60174" lon="-0.7617">
        <ele>74</ele>
        <time>2018-09-03T17:59:48.718Z</time>
      </trkpt>
      <trkpt lat="44.6024" lon="-0.7626">
        <ele>74</ele>
        <time>2018-09-03T17:59:50.185Z</time>
      </trkpt>
      <trkpt lat="44.60283" lon="-0.76318">
        <ele>74</ele>
        <time>2018-09-03T17:59:51.150Z</time>
      </trkpt>
      <trkpt lat="44.60421" lon="-0.76504">
        <ele>74</ele>
        <time>2018-09-03T17:59:54.216Z</time>
      </trkpt>
      <trkpt lat="44.60464" lon="-0.76562">
        <ele>74</ele>
        <time>2018-09-03T17:59:55.166Z</time>
      </trkpt>
      <trkpt lat="44.60473" lon="-0.76576">
        <ele>74</ele>
        <time>2018-09-03T17:59:55.388Z</time>
      </trkpt>
      <trkpt lat="44.60576" lon="-0.76727">
        <ele>74</ele>
        <time>2018-09-03T17:59:57.781Z</time>
      </trkpt>
      <trkpt lat="44.60603" lon="-0.76809">
        <ele>73</ele>
        <time>2018-09-03T17:59:58.808Z</time>
      </trkpt>
      <trkpt lat="44.60623" lon="-0.76908">
        <ele>73</ele>
        <time>2018-09-03T17:59:59.975Z</time>
      </trkpt>
      <trkpt lat="44.60623" lon="-0.76908">
        <ele>73</ele>
        <time>2018-09-03T17:59:59.975Z</time>
      </trkpt>
      <trkpt lat="44.60625" lon="-0.76918">
        <ele>73</ele>
        <time>2018-09-03T18:00:00.096Z</time>
      </trkpt>
      <trkpt lat="44.60626" lon="-0.76922">
        <ele>73</ele>
        <time>2018-09-03T18:00:00.148Z</time>
      </trkpt>
      <trkpt lat="44.60638" lon="-0.7696">
        <ele>73</ele>
        <time>2018-09-03T18:00:00.619Z</time>
      </trkpt>
      <trkpt lat="44.60656" lon="-0.76975">
        <ele>73</ele>
        <time>2018-09-03T18:00:00.958Z</time>
      </trkpt>
      <trkpt lat="44.60626" lon="-0.76986">
        <ele>73</ele>
        <time>2018-09-03T18:00:01.455Z</time>
      </trkpt>
      <trkpt lat="44.6061" lon="-0.76991">
        <ele>73</ele>
        <time>2018-09-03T18:00:01.720Z</time>
      </trkpt>
      <trkpt lat="44.60584" lon="-0.76999">
        <ele>74</ele>
        <time>2018-09-03T18:00:02.142Z</time>
      </trkpt>
      <trkpt lat="44.60584" lon="-0.76999">
        <ele>74</ele>
        <time>2018-09-03T18:00:02.142Z</time>
      </trkpt>
      <trkpt lat="44.60567" lon="-0.77004">
        <ele>73</ele>
        <time>2018-09-03T18:00:02.424Z</time>
      </trkpt>
      <trkpt lat="44.60553" lon="-0.77008">
        <ele>73</ele>
        <time>2018-09-03T18:00:02.652Z</time>
      </trkpt>
      <trkpt lat="44.60538" lon="-0.77013">
        <ele>73</ele>
        <time>2018-09-03T18:00:02.891Z</time>
      </trkpt>
      <trkpt lat="44.60525" lon="-0.77016">
        <ele>73</ele>
        <time>2018-09-03T18:00:03.102Z</time>
      </trkpt>
      <trkpt lat="44.60459" lon="-0.77036">
        <ele>73</ele>
        <time>2018-09-03T18:00:04.184Z</time>
      </trkpt>
      <trkpt lat="44.60459" lon="-0.77036">
        <ele>73</ele>
        <time>2018-09-03T18:00:04.184Z</time>
      </trkpt>
      <trkpt lat="44.60454" lon="-0.77038">
        <ele>73</ele>
        <time>2018-09-03T18:00:04.280Z</time>
      </trkpt>
      <trkpt lat="44.604" lon="-0.77054">
        <ele>74</ele>
        <time>2018-09-03T18:00:05.151Z</time>
      </trkpt>
      <trkpt lat="44.60382" lon="-0.7706">
        <ele>74</ele>
        <time>2018-09-03T18:00:05.459Z</time>
      </trkpt>
      <trkpt lat="44.60305" lon="-0.77083">
        <ele>74</ele>
        <time>2018-09-03T18:00:06.717Z</time>
      </trkpt>
      <trkpt lat="44.60171" lon="-0.77123">
        <ele>72</ele>
        <time>2018-09-03T18:00:08.907Z</time>
      </trkpt>
      <trkpt lat="44.601" lon="-0.77143">
        <ele>72</ele>
        <time>2018-09-03T18:00:10.080Z</time>
      </trkpt>
      <trkpt lat="44.59823" lon="-0.77226">
        <ele>75</ele>
        <time>2018-09-03T18:00:14.611Z</time>
      </trkpt>
      <trkpt lat="44.59823" lon="-0.77226">
        <ele>75</ele>
        <time>2018-09-03T18:00:14.611Z</time>
      </trkpt>
      <trkpt lat="44.59769" lon="-0.77243">
        <ele>76</ele>
        <time>2018-09-03T18:00:15.508Z</time>
      </trkpt>
      <trkpt lat="44.59769" lon="-0.77243">
        <ele>76</ele>
        <time>2018-09-03T18:00:15.508Z</time>
      </trkpt>
      <trkpt lat="44.59633" lon="-0.77284">
        <ele>76</ele>
        <time>2018-09-03T18:00:17.734Z</time>
      </trkpt>
      <trkpt lat="44.59193" lon="-0.77416">
        <ele>75</ele>
        <time>2018-09-03T18:00:24.945Z</time>
      </trkpt>
      <trkpt lat="44.59193" lon="-0.77416">
        <ele>75</ele>
        <time>2018-09-03T18:00:24.945Z</time>
      </trkpt>
      <trkpt lat="44.58198" lon="-0.7771">
        <ele>79</ele>
        <time>2018-09-03T18:00:41.247Z</time>
      </trkpt>
      <trkpt lat="44.58198" lon="-0.7771">
        <ele>79</ele>
        <time>2018-09-03T18:00:41.247Z</time>
      </trkpt>
      <trkpt lat="44.57886" lon="-0.77807">
        <ele>75</ele>
        <time>2018-09-03T18:00:46.373Z</time>
      </trkpt>
      <trkpt lat="44.57861" lon="-0.77815">
        <ele>74</ele>
        <time>2018-09-03T18:00:46.779Z</time>
      </trkpt>
      <trkpt lat="44.57696" lon="-0.7787">
        <ele>76</ele>
        <time>2018-09-03T18:00:49.501Z</time>
      </trkpt>
      <trkpt lat="44.57674" lon="-0.77874">
        <ele>76</ele>
        <time>2018-09-03T18:00:49.848Z</time>
      </trkpt>
      <trkpt lat="44.57661" lon="-0.77879">
        <ele>76</ele>
        <time>2018-09-03T18:00:50.069Z</time>
      </trkpt>
      <trkpt lat="44.57654" lon="-0.77886">
        <ele>76</ele>
        <time>2018-09-03T18:00:50.210Z</time>
      </trkpt>
      <trkpt lat="44.57644" lon="-0.77884">
        <ele>76</ele>
        <time>2018-09-03T18:00:50.367Z</time>
      </trkpt>
      <trkpt lat="44.57363" lon="-0.77971">
        <ele>74</ele>
        <time>2018-09-03T18:00:54.991Z</time>
      </trkpt>
      <trkpt lat="44.57359" lon="-0.77972">
        <ele>74</ele>
        <time>2018-09-03T18:00:55.044Z</time>
      </trkpt>
      <trkpt lat="44.57304" lon="-0.78212">
        <ele>73</ele>
        <time>2018-09-03T18:00:57.925Z</time>
      </trkpt>
      <trkpt lat="44.5728" lon="-0.78331">
        <ele>73</ele>
        <time>2018-09-03T18:00:59.331Z</time>
      </trkpt>
      <trkpt lat="44.57254" lon="-0.78523">
        <ele>70</ele>
        <time>2018-09-03T18:01:01.569Z</time>
      </trkpt>
      <trkpt lat="44.57224" lon="-0.78599">
        <ele>69</ele>
        <time>2018-09-03T18:01:02.558Z</time>
      </trkpt>
      <trkpt lat="44.57202" lon="-0.78655">
        <ele>69</ele>
        <time>2018-09-03T18:01:03.290Z</time>
      </trkpt>
      <trkpt lat="44.57176" lon="-0.78718">
        <ele>69</ele>
        <time>2018-09-03T18:01:04.123Z</time>
      </trkpt>
      <trkpt lat="44.57029" lon="-0.79012">
        <ele>72</ele>
        <time>2018-09-03T18:01:08.220Z</time>
      </trkpt>
      <trkpt lat="44.56985" lon="-0.79097">
        <ele>72</ele>
        <time>2018-09-03T18:01:09.423Z</time>
      </trkpt>
      <trkpt lat="44.56873" lon="-0.79315">
        <ele>67</ele>
        <time>2018-09-03T18:01:12.492Z</time>
      </trkpt>
      <trkpt lat="44.56733" lon="-0.79514">
        <ele>75</ele>
        <time>2018-09-03T18:01:15.691Z</time>
      </trkpt>
      <trkpt lat="44.56522" lon="-0.79803">
        <ele>68</ele>
        <time>2018-09-03T18:01:20.412Z</time>
      </trkpt>
      <trkpt lat="44.5642" lon="-0.79979">
        <ele>67</ele>
        <time>2018-09-03T18:01:23.007Z</time>
      </trkpt>
      <trkpt lat="44.56415" lon="-0.8">
        <ele>67</ele>
        <time>2018-09-03T18:01:23.261Z</time>
      </trkpt>
      <trkpt lat="44.56359" lon="-0.80251">
        <ele>66</ele>
        <time>2018-09-03T18:01:26.259Z</time>
      </trkpt>
      <trkpt lat="44.56134" lon="-0.8141">
        <ele>62</ele>
        <time>2018-09-03T18:01:39.984Z</time>
      </trkpt>
      <trkpt lat="44.56134" lon="-0.8141">
        <ele>62</ele>
        <time>2018-09-03T18:01:39.984Z</time>
      </trkpt>
      <trkpt lat="44.56099" lon="-0.81587">
        <ele>61</ele>
        <time>2018-09-03T18:01:42.086Z</time>
      </trkpt>
      <trkpt lat="44.56074" lon="-0.8166">
        <ele>63</ele>
        <time>2018-09-03T18:01:43.012Z</time>
      </trkpt>
      <trkpt lat="44.55662" lon="-0.82519">
        <ele>58</ele>
        <time>2018-09-03T18:01:54.834Z</time>
      </trkpt>
      <trkpt lat="44.55638" lon="-0.826">
        <ele>57</ele>
        <time>2018-09-03T18:01:55.839Z</time>
      </trkpt>
      <trkpt lat="44.55538" lon="-0.83149">
        <ele>51</ele>
        <time>2018-09-03T18:02:02.305Z</time>
      </trkpt>
      <trkpt lat="44.55523" lon="-0.83233">
        <ele>52</ele>
        <time>2018-09-03T18:02:03.303Z</time>
      </trkpt>
      <trkpt lat="44.55401" lon="-0.83879">
        <ele>51</ele>
        <time>2018-09-03T18:02:10.929Z</time>
      </trkpt>
      <trkpt lat="44.55383" lon="-0.83953">
        <ele>53</ele>
        <time>2018-09-03T18:02:11.824Z</time>
      </trkpt>
      <trkpt lat="44.55282" lon="-0.84366">
        <ele>45</ele>
        <time>2018-09-03T18:02:16.815Z</time>
      </trkpt>
      <trkpt lat="44.55266" lon="-0.84427">
        <ele>44</ele>
        <time>2018-09-03T18:02:17.560Z</time>
      </trkpt>
      <trkpt lat="44.55206" lon="-0.84669">
        <ele>42</ele>
        <time>2018-09-03T18:02:20.493Z</time>
      </trkpt>
      <trkpt lat="44.55198" lon="-0.84808">
        <ele>40</ele>
        <time>2018-09-03T18:02:22.085Z</time>
      </trkpt>
      <trkpt lat="44.55196" lon="-0.84874">
        <ele>39</ele>
        <time>2018-09-03T18:02:22.839Z</time>
      </trkpt>
      <trkpt lat="44.55185" lon="-0.85368">
        <ele>36</ele>
        <time>2018-09-03T18:02:28.480Z</time>
      </trkpt>
      <trkpt lat="44.55185" lon="-0.85368">
        <ele>36</ele>
        <time>2018-09-03T18:02:28.480Z</time>
      </trkpt>
      <trkpt lat="44.55182" lon="-0.8543">
        <ele>35</ele>
        <time>2018-09-03T18:02:29.192Z</time>
      </trkpt>
      <trkpt lat="44.5515" lon="-0.85578">
        <ele>34</ele>
        <time>2018-09-03T18:02:30.957Z</time>
      </trkpt>
      <trkpt lat="44.55145" lon="-0.85694">
        <ele>33</ele>
        <time>2018-09-03T18:02:32.295Z</time>
      </trkpt>
      <trkpt lat="44.55145" lon="-0.85694">
        <ele>33</ele>
        <time>2018-09-03T18:02:32.295Z</time>
      </trkpt>
      <trkpt lat="44.55145" lon="-0.85743">
        <ele>32</ele>
        <time>2018-09-03T18:02:32.853Z</time>
      </trkpt>
      <trkpt lat="44.55145" lon="-0.85773">
        <ele>31</ele>
        <time>2018-09-03T18:02:33.190Z</time>
      </trkpt>
      <trkpt lat="44.55146" lon="-0.85788">
        <ele>31</ele>
        <time>2018-09-03T18:02:33.362Z</time>
      </trkpt>
      <trkpt lat="44.55147" lon="-0.8583">
        <ele>31</ele>
        <time>2018-09-03T18:02:33.846Z</time>
      </trkpt>
      <trkpt lat="44.55147" lon="-0.8587">
        <ele>31</ele>
        <time>2018-09-03T18:02:34.306Z</time>
      </trkpt>
      <trkpt lat="44.5515" lon="-0.86014">
        <ele>31</ele>
        <time>2018-09-03T18:02:35.943Z</time>
      </trkpt>
      <trkpt lat="44.5515" lon="-0.86014">
        <ele>31</ele>
        <time>2018-09-03T18:02:35.943Z</time>
      </trkpt>
      <trkpt lat="44.55149" lon="-0.86049">
        <ele>30</ele>
        <time>2018-09-03T18:02:36.341Z</time>
      </trkpt>
      <trkpt lat="44.55148" lon="-0.86097">
        <ele>30</ele>
        <time>2018-09-03T18:02:36.893Z</time>
      </trkpt>
      <trkpt lat="44.55148" lon="-0.86097">
        <ele>30</ele>
        <time>2018-09-03T18:02:36.893Z</time>
      </trkpt>
      <trkpt lat="44.55148" lon="-0.86176">
        <ele>29</ele>
        <time>2018-09-03T18:02:37.800Z</time>
      </trkpt>
      <trkpt lat="44.55155" lon="-0.8653">
        <ele>27</ele>
        <time>2018-09-03T18:02:41.840Z</time>
      </trkpt>
      <trkpt lat="44.55155" lon="-0.8653">
        <ele>27</ele>
        <time>2018-09-03T18:02:41.840Z</time>
      </trkpt>
      <trkpt lat="44.55154" lon="-0.86545">
        <ele>27</ele>
        <time>2018-09-03T18:02:42.019Z</time>
      </trkpt>
      <trkpt lat="44.55156" lon="-0.86563">
        <ele>27</ele>
        <time>2018-09-03T18:02:42.226Z</time>
      </trkpt>
      <trkpt lat="44.55255" lon="-0.86649">
        <ele>26</ele>
        <time>2018-09-03T18:02:44.095Z</time>
      </trkpt>
      <trkpt lat="44.55352" lon="-0.86754">
        <ele>26</ele>
        <time>2018-09-03T18:02:46.058Z</time>
      </trkpt>
      <trkpt lat="44.55464" lon="-0.86894">
        <ele>25</ele>
        <time>2018-09-03T18:02:48.454Z</time>
      </trkpt>
      <trkpt lat="44.55464" lon="-0.86894">
        <ele>25</ele>
        <time>2018-09-03T18:02:48.454Z</time>
      </trkpt>
      <trkpt lat="44.55714" lon="-0.87188">
        <ele>24</ele>
        <time>2018-09-03T18:02:53.689Z</time>
      </trkpt>
      <trkpt lat="44.55816" lon="-0.87328">
        <ele>23</ele>
        <time>2018-09-03T18:02:55.975Z</time>
      </trkpt>
      <trkpt lat="44.55816" lon="-0.87328">
        <ele>23</ele>
        <time>2018-09-03T18:02:55.975Z</time>
      </trkpt>
      <trkpt lat="44.5588" lon="-0.87452">
        <ele>23</ele>
        <time>2018-09-03T18:02:57.727Z</time>
      </trkpt>
      <trkpt lat="44.55993" lon="-0.87736">
        <ele>25</ele>
        <time>2018-09-03T18:03:01.439Z</time>
      </trkpt>
      <trkpt lat="44.56096" lon="-0.87928">
        <ele>26</ele>
        <time>2018-09-03T18:03:04.185Z</time>
      </trkpt>
      <trkpt lat="44.56271" lon="-0.88181">
        <ele>24</ele>
        <time>2018-09-03T18:03:08.219Z</time>
      </trkpt>
      <trkpt lat="44.56701" lon="-0.88797">
        <ele>31</ele>
        <time>2018-09-03T18:03:18.069Z</time>
      </trkpt>
      <trkpt lat="44.56701" lon="-0.88797">
        <ele>31</ele>
        <time>2018-09-03T18:03:18.069Z</time>
      </trkpt>
      <trkpt lat="44.56939" lon="-0.89137">
        <ele>24</ele>
        <time>2018-09-03T18:03:23.516Z</time>
      </trkpt>
      <trkpt lat="44.56994" lon="-0.89214">
        <ele>23</ele>
        <time>2018-09-03T18:03:24.750Z</time>
      </trkpt>
      <trkpt lat="44.57113" lon="-0.89383">
        <ele>27</ele>
        <time>2018-09-03T18:03:27.460Z</time>
      </trkpt>
      <trkpt lat="44.57131" lon="-0.89409">
        <ele>27</ele>
        <time>2018-09-03T18:03:27.889Z</time>
      </trkpt>
      <trkpt lat="44.5715" lon="-0.89436">
        <ele>26</ele>
        <time>2018-09-03T18:03:28.314Z</time>
      </trkpt>
      <trkpt lat="44.57164" lon="-0.89455">
        <ele>26</ele>
        <time>2018-09-03T18:03:28.632Z</time>
      </trkpt>
      <trkpt lat="44.57345" lon="-0.89711">
        <ele>26</ele>
        <time>2018-09-03T18:03:32.749Z</time>
      </trkpt>
      <trkpt lat="44.57345" lon="-0.89711">
        <ele>26</ele>
        <time>2018-09-03T18:03:32.750Z</time>
      </trkpt>
      <trkpt lat="44.57614" lon="-0.90086">
        <ele>28</ele>
        <time>2018-09-03T18:03:38.829Z</time>
      </trkpt>
      <trkpt lat="44.57621" lon="-0.90097">
        <ele>28</ele>
        <time>2018-09-03T18:03:38.990Z</time>
      </trkpt>
      <trkpt lat="44.57815" lon="-0.90324">
        <ele>23</ele>
        <time>2018-09-03T18:03:43.044Z</time>
      </trkpt>
      <trkpt lat="44.58287" lon="-0.90784">
        <ele>31</ele>
        <time>2018-09-03T18:03:52.247Z</time>
      </trkpt>
      <trkpt lat="44.58622" lon="-0.91108">
        <ele>29</ele>
        <time>2018-09-03T18:03:58.772Z</time>
      </trkpt>
      <trkpt lat="44.58631" lon="-0.91116">
        <ele>28</ele>
        <time>2018-09-03T18:03:58.937Z</time>
      </trkpt>
      <trkpt lat="44.58631" lon="-0.91116">
        <ele>28</ele>
        <time>2018-09-03T18:03:58.937Z</time>
      </trkpt>
      <trkpt lat="44.58912" lon="-0.91382">
        <ele>30</ele>
        <time>2018-09-03T18:04:04.382Z</time>
      </trkpt>
      <trkpt lat="44.59288" lon="-0.91743">
        <ele>21</ele>
        <time>2018-09-03T18:04:11.685Z</time>
      </trkpt>
      <trkpt lat="44.59458" lon="-0.9196">
        <ele>18</ele>
        <time>2018-09-03T18:04:15.362Z</time>
      </trkpt>
      <trkpt lat="44.5946" lon="-0.91959">
        <ele>18</ele>
        <time>2018-09-03T18:04:15.391Z</time>
      </trkpt>
      <trkpt lat="44.59567" lon="-0.92135">
        <ele>23</ele>
        <time>2018-09-03T18:04:18.040Z</time>
      </trkpt>
      <trkpt lat="44.59631" lon="-0.92257">
        <ele>20</ele>
        <time>2018-09-03T18:04:19.761Z</time>
      </trkpt>
      <trkpt lat="44.59688" lon="-0.92388">
        <ele>17</ele>
        <time>2018-09-03T18:04:21.517Z</time>
      </trkpt>
      <trkpt lat="44.59758" lon="-0.92552">
        <ele>20</ele>
        <time>2018-09-03T18:04:23.698Z</time>
      </trkpt>
      <trkpt lat="44.59822" lon="-0.92701">
        <ele>21</ele>
        <time>2018-09-03T18:04:25.694Z</time>
      </trkpt>
      <trkpt lat="44.59873" lon="-0.9282">
        <ele>19</ele>
        <time>2018-09-03T18:04:27.275Z</time>
      </trkpt>
      <trkpt lat="44.59912" lon="-0.92911">
        <ele>14</ele>
        <time>2018-09-03T18:04:28.485Z</time>
      </trkpt>
      <trkpt lat="44.59912" lon="-0.92911">
        <ele>14</ele>
        <time>2018-09-03T18:04:28.485Z</time>
      </trkpt>
      <trkpt lat="44.59928" lon="-0.92948">
        <ele>14</ele>
        <time>2018-09-03T18:04:28.985Z</time>
      </trkpt>
      <trkpt lat="44.6001" lon="-0.93139">
        <ele>13</ele>
        <time>2018-09-03T18:04:31.531Z</time>
      </trkpt>
      <trkpt lat="44.6001" lon="-0.93139">
        <ele>13</ele>
        <time>2018-09-03T18:04:31.532Z</time>
      </trkpt>
      <trkpt lat="44.6013" lon="-0.93415">
        <ele>15</ele>
        <time>2018-09-03T18:04:35.218Z</time>
      </trkpt>
      <trkpt lat="44.60152" lon="-0.93492">
        <ele>14</ele>
        <time>2018-09-03T18:04:36.162Z</time>
      </trkpt>
      <trkpt lat="44.60222" lon="-0.93654">
        <ele>11</ele>
        <time>2018-09-03T18:04:38.332Z</time>
      </trkpt>
      <trkpt lat="44.60222" lon="-0.93654">
        <ele>11</ele>
        <time>2018-09-03T18:04:38.332Z</time>
      </trkpt>
      <trkpt lat="44.60239" lon="-0.93666">
        <ele>11</ele>
        <time>2018-09-03T18:04:38.631Z</time>
      </trkpt>
      <trkpt lat="44.60246" lon="-0.93696">
        <ele>10</ele>
        <time>2018-09-03T18:04:38.992Z</time>
      </trkpt>
      <trkpt lat="44.60256" lon="-0.93701">
        <ele>11</ele>
        <time>2018-09-03T18:04:39.166Z</time>
      </trkpt>
      <trkpt lat="44.60257" lon="-0.93706">
        <ele>11</ele>
        <time>2018-09-03T18:04:39.219Z</time>
      </trkpt>
      <trkpt lat="44.60258" lon="-0.93706">
        <ele>11</ele>
        <time>2018-09-03T18:04:39.224Z</time>
      </trkpt>
      <trkpt lat="44.60258" lon="-0.93706">
        <ele>11</ele>
        <time>2018-09-03T18:04:39.224Z</time>
      </trkpt>
      <trkpt lat="44.60261" lon="-0.93718">
        <ele>11</ele>
        <time>2018-09-03T18:04:39.371Z</time>
      </trkpt>
      <trkpt lat="44.6033" lon="-0.93869">
        <ele>13</ele>
        <time>2018-09-03T18:04:41.423Z</time>
      </trkpt>
      <trkpt lat="44.60421" lon="-0.94009">
        <ele>9</ele>
        <time>2018-09-03T18:04:43.583Z</time>
      </trkpt>
      <trkpt lat="44.60537" lon="-0.9415">
        <ele>10</ele>
        <time>2018-09-03T18:04:46.037Z</time>
      </trkpt>
      <trkpt lat="44.60537" lon="-0.9415">
        <ele>10</ele>
        <time>2018-09-03T18:04:46.037Z</time>
      </trkpt>
      <trkpt lat="44.60812" lon="-0.94472">
        <ele>13</ele>
        <time>2018-09-03T18:04:51.778Z</time>
      </trkpt>
      <trkpt lat="44.60812" lon="-0.94472">
        <ele>13</ele>
        <time>2018-09-03T18:04:51.778Z</time>
      </trkpt>
      <trkpt lat="44.61179" lon="-0.94898">
        <ele>9</ele>
        <time>2018-09-03T18:04:59.420Z</time>
      </trkpt>
      <trkpt lat="44.61378" lon="-0.95128">
        <ele>15</ele>
        <time>2018-09-03T18:05:03.549Z</time>
      </trkpt>
      <trkpt lat="44.61378" lon="-0.95128">
        <ele>15</ele>
        <time>2018-09-03T18:05:03.549Z</time>
      </trkpt>
      <trkpt lat="44.61761" lon="-0.95568">
        <ele>15</ele>
        <time>2018-09-03T18:05:11.477Z</time>
      </trkpt>
      <trkpt lat="44.62104" lon="-0.95965">
        <ele>13</ele>
        <time>2018-09-03T18:05:18.601Z</time>
      </trkpt>
      <trkpt lat="44.62104" lon="-0.95965">
        <ele>13</ele>
        <time>2018-09-03T18:05:18.601Z</time>
      </trkpt>
      <trkpt lat="44.62243" lon="-0.96125">
        <ele>11</ele>
        <time>2018-09-03T18:05:21.473Z</time>
      </trkpt>
      <trkpt lat="44.62243" lon="-0.96125">
        <ele>11</ele>
        <time>2018-09-03T18:05:21.473Z</time>
      </trkpt>
      <trkpt lat="44.62297" lon="-0.96187">
        <ele>12</ele>
        <time>2018-09-03T18:05:22.595Z</time>
      </trkpt>
      <trkpt lat="44.62297" lon="-0.96187">
        <ele>12</ele>
        <time>2018-09-03T18:05:22.595Z</time>
      </trkpt>
      <trkpt lat="44.62303" lon="-0.96198">
        <ele>12</ele>
        <time>2018-09-03T18:05:22.755Z</time>
      </trkpt>
      <trkpt lat="44.62296" lon="-0.96292">
        <ele>10</ele>
        <time>2018-09-03T18:05:23.831Z</time>
      </trkpt>
      <trkpt lat="44.62311" lon="-0.9629">
        <ele>10</ele>
        <time>2018-09-03T18:05:24.072Z</time>
      </trkpt>
      <trkpt lat="44.62326" lon="-0.96256">
        <ele>13</ele>
        <time>2018-09-03T18:05:24.522Z</time>
      </trkpt>
      <trkpt lat="44.6234" lon="-0.96258">
        <ele>13</ele>
        <time>2018-09-03T18:05:24.755Z</time>
      </trkpt>
      <trkpt lat="44.62404" lon="-0.96312">
        <ele>11</ele>
        <time>2018-09-03T18:05:25.954Z</time>
      </trkpt>
      <trkpt lat="44.62546" lon="-0.96476">
        <ele>11</ele>
        <time>2018-09-03T18:05:28.904Z</time>
      </trkpt>
      <trkpt lat="44.62546" lon="-0.96476">
        <ele>11</ele>
        <time>2018-09-03T18:05:28.904Z</time>
      </trkpt>
      <trkpt lat="44.62564" lon="-0.96497">
        <ele>11</ele>
        <time>2018-09-03T18:05:29.281Z</time>
      </trkpt>
      <trkpt lat="44.6257" lon="-0.96501">
        <ele>12</ele>
        <time>2018-09-03T18:05:29.375Z</time>
      </trkpt>
      <trkpt lat="44.6257" lon="-0.96501">
        <ele>12</ele>
        <time>2018-09-03T18:05:29.376Z</time>
      </trkpt>
      <trkpt lat="44.62582" lon="-0.96496">
        <ele>11</ele>
        <time>2018-09-03T18:05:29.581Z</time>
      </trkpt>
      <trkpt lat="44.62589" lon="-0.96482">
        <ele>11</ele>
        <time>2018-09-03T18:05:29.775Z</time>
      </trkpt>
      <trkpt lat="44.62648" lon="-0.96326">
        <ele>8</ele>
        <time>2018-09-03T18:05:31.788Z</time>
      </trkpt>
      <trkpt lat="44.62696" lon="-0.96302">
        <ele>9</ele>
        <time>2018-09-03T18:05:32.618Z</time>
      </trkpt>
      <trkpt lat="44.62738" lon="-0.96123">
        <ele>11</ele>
        <time>2018-09-03T18:05:34.764Z</time>
      </trkpt>
      <trkpt lat="44.62772" lon="-0.96059">
        <ele>11</ele>
        <time>2018-09-03T18:05:35.672Z</time>
      </trkpt>
      <trkpt lat="44.62789" lon="-0.96064">
        <ele>11</ele>
        <time>2018-09-03T18:05:35.953Z</time>
      </trkpt>
      <trkpt lat="44.62847" lon="-0.96115">
        <ele>12</ele>
        <time>2018-09-03T18:05:37.049Z</time>
      </trkpt>
      <trkpt lat="44.629" lon="-0.96126">
        <ele>12</ele>
        <time>2018-09-03T18:05:37.910Z</time>
      </trkpt>
      <trkpt lat="44.629" lon="-0.96126">
        <ele>12</ele>
        <time>2018-09-03T18:05:37.910Z</time>
      </trkpt>
      <trkpt lat="44.63078" lon="-0.96117">
        <ele>9</ele>
        <time>2018-09-03T18:05:40.758Z</time>
      </trkpt>
      <trkpt lat="44.63096" lon="-0.96144">
        <ele>10</ele>
        <time>2018-09-03T18:05:41.181Z</time>
      </trkpt>
      <trkpt lat="44.63108" lon="-0.96145">
        <ele>10</ele>
        <time>2018-09-03T18:05:41.371Z</time>
      </trkpt>
      <trkpt lat="44.63119" lon="-0.96134">
        <ele>10</ele>
        <time>2018-09-03T18:05:41.586Z</time>
      </trkpt>
      <trkpt lat="44.63147" lon="-0.96142">
        <ele>10</ele>
        <time>2018-09-03T18:05:42.051Z</time>
      </trkpt>
      <trkpt lat="44.6319" lon="-0.96167">
        <ele>12</ele>
        <time>2018-09-03T18:05:42.797Z</time>
      </trkpt>
      <trkpt lat="44.63243" lon="-0.96217">
        <ele>13</ele>
        <time>2018-09-03T18:05:43.814Z</time>
      </trkpt>
      <trkpt lat="44.63243" lon="-0.96217">
        <ele>13</ele>
        <time>2018-09-03T18:05:43.814Z</time>
      </trkpt>
      <trkpt lat="44.63298" lon="-0.96268">
        <ele>13</ele>
        <time>2018-09-03T18:05:44.873Z</time>
      </trkpt>
      <trkpt lat="44.63309" lon="-0.96266">
        <ele>13</ele>
        <time>2018-09-03T18:05:45.055Z</time>
      </trkpt>
      <trkpt lat="44.63315" lon="-0.96262">
        <ele>13</ele>
        <time>2018-09-03T18:05:45.167Z</time>
      </trkpt>
      <trkpt lat="44.63335" lon="-0.96288">
        <ele>12</ele>
        <time>2018-09-03T18:05:45.604Z</time>
      </trkpt>
      <trkpt lat="44.63461" lon="-0.96404">
        <ele>12</ele>
        <time>2018-09-03T18:05:48.019Z</time>
      </trkpt>
      <trkpt lat="44.63461" lon="-0.96404">
        <ele>12</ele>
        <time>2018-09-03T18:05:48.019Z</time>
      </trkpt>
      <trkpt lat="44.63601" lon="-0.96537">
        <ele>12</ele>
        <time>2018-09-03T18:05:50.718Z</time>
      </trkpt>
      <trkpt lat="44.63646" lon="-0.96592">
        <ele>12</ele>
        <time>2018-09-03T18:05:51.677Z</time>
      </trkpt>
      <trkpt lat="44.63658" lon="-0.96594">
        <ele>13</ele>
        <time>2018-09-03T18:05:51.869Z</time>
      </trkpt>
      <trkpt lat="44.63658" lon="-0.96594">
        <ele>13</ele>
        <time>2018-09-03T18:05:51.869Z</time>
      </trkpt>
      <trkpt lat="44.6366" lon="-0.9661">
        <ele>12</ele>
        <time>2018-09-03T18:05:52.050Z</time>
      </trkpt>
      <trkpt lat="44.63733" lon="-0.96722">
        <ele>12</ele>
        <time>2018-09-03T18:05:53.783Z</time>
      </trkpt>
      <trkpt lat="44.6373" lon="-0.96739">
        <ele>12</ele>
        <time>2018-09-03T18:05:53.977Z</time>
      </trkpt>
      <trkpt lat="44.63761" lon="-0.96804">
        <ele>11</ele>
        <time>2018-09-03T18:05:54.875Z</time>
      </trkpt>
      <trkpt lat="44.63774" lon="-0.9681">
        <ele>11</ele>
        <time>2018-09-03T18:05:55.090Z</time>
      </trkpt>
      <trkpt lat="44.63781" lon="-0.96805">
        <ele>11</ele>
        <time>2018-09-03T18:05:55.215Z</time>
      </trkpt>
      <trkpt lat="44.63785" lon="-0.96807">
        <ele>11</ele>
        <time>2018-09-03T18:05:55.288Z</time>
      </trkpt>
      <trkpt lat="44.6379" lon="-0.96818">
        <ele>11</ele>
        <time>2018-09-03T18:05:55.433Z</time>
      </trkpt>
      <trkpt lat="44.63788" lon="-0.96851">
        <ele>11</ele>
        <time>2018-09-03T18:05:55.821Z</time>
      </trkpt>
      <trkpt lat="44.63764" lon="-0.96865">
        <ele>11</ele>
        <time>2018-09-03T18:05:56.221Z</time>
      </trkpt>
      <trkpt lat="44.63723" lon="-0.96958">
        <ele>11</ele>
        <time>2018-09-03T18:05:57.479Z</time>
      </trkpt>
      <trkpt lat="44.63718" lon="-0.96968">
        <ele>11</ele>
        <time>2018-09-03T18:05:57.614Z</time>
      </trkpt>
      <trkpt lat="44.63676" lon="-0.97062">
        <ele>11</ele>
        <time>2018-09-03T18:05:58.882Z</time>
      </trkpt>
      <trkpt lat="44.63676" lon="-0.97062">
        <ele>11</ele>
        <time>2018-09-03T18:05:58.882Z</time>
      </trkpt>
      <trkpt lat="44.63584" lon="-0.97266">
        <ele>9</ele>
        <time>2018-09-03T18:06:01.633Z</time>
      </trkpt>
      <trkpt lat="44.63572" lon="-0.97294">
        <ele>9</ele>
        <time>2018-09-03T18:06:02.008Z</time>
      </trkpt>
      <trkpt lat="44.63538" lon="-0.97369">
        <ele>10</ele>
        <time>2018-09-03T18:06:03.026Z</time>
      </trkpt>
      <trkpt lat="44.63488" lon="-0.97479">
        <ele>10</ele>
        <time>2018-09-03T18:06:04.514Z</time>
      </trkpt>
      <trkpt lat="44.63491" lon="-0.97499">
        <ele>11</ele>
        <time>2018-09-03T18:06:04.746Z</time>
      </trkpt>
      <trkpt lat="44.63487" lon="-0.97509">
        <ele>10</ele>
        <time>2018-09-03T18:06:04.881Z</time>
      </trkpt>
      <trkpt lat="44.63483" lon="-0.97517">
        <ele>10</ele>
        <time>2018-09-03T18:06:04.981Z</time>
      </trkpt>
      <trkpt lat="44.63462" lon="-0.97535">
        <ele>9</ele>
        <time>2018-09-03T18:06:05.376Z</time>
      </trkpt>
      <trkpt lat="44.6338" lon="-0.9772">
        <ele>7</ele>
        <time>2018-09-03T18:06:07.873Z</time>
      </trkpt>
      <trkpt lat="44.63374" lon="-0.97731">
        <ele>7</ele>
        <time>2018-09-03T18:06:08.023Z</time>
      </trkpt>
      <trkpt lat="44.63355" lon="-0.97774">
        <ele>7</ele>
        <time>2018-09-03T18:06:08.602Z</time>
      </trkpt>
      <trkpt lat="44.63277" lon="-0.97947">
        <ele>7</ele>
        <time>2018-09-03T18:06:10.939Z</time>
      </trkpt>
      <trkpt lat="44.63278" lon="-0.97967">
        <ele>7</ele>
        <time>2018-09-03T18:06:11.166Z</time>
      </trkpt>
      <trkpt lat="44.63278" lon="-0.97967">
        <ele>7</ele>
        <time>2018-09-03T18:06:11.166Z</time>
      </trkpt>
      <trkpt lat="44.63268" lon="-0.97982">
        <ele>7</ele>
        <time>2018-09-03T18:06:11.397Z</time>
      </trkpt>
      <trkpt lat="44.63255" lon="-0.97997">
        <ele>7</ele>
        <time>2018-09-03T18:06:11.668Z</time>
      </trkpt>
      <trkpt lat="44.63118" lon="-0.98304">
        <ele>8</ele>
        <time>2018-09-03T18:06:15.799Z</time>
      </trkpt>
      <trkpt lat="44.63117" lon="-0.98321">
        <ele>8</ele>
        <time>2018-09-03T18:06:15.996Z</time>
      </trkpt>
      <trkpt lat="44.63103" lon="-0.98337">
        <ele>9</ele>
        <time>2018-09-03T18:06:16.296Z</time>
      </trkpt>
      <trkpt lat="44.62967" lon="-0.98639">
        <ele>7</ele>
        <time>2018-09-03T18:06:20.361Z</time>
      </trkpt>
      <trkpt lat="44.62967" lon="-0.98639">
        <ele>7</ele>
        <time>2018-09-03T18:06:20.361Z</time>
      </trkpt>
      <trkpt lat="44.6294" lon="-0.987">
        <ele>8</ele>
        <time>2018-09-03T18:06:21.185Z</time>
      </trkpt>
      <trkpt lat="44.62913" lon="-0.9876">
        <ele>9</ele>
        <time>2018-09-03T18:06:21.994Z</time>
      </trkpt>
      <trkpt lat="44.62913" lon="-0.9876">
        <ele>9</ele>
        <time>2018-09-03T18:06:21.994Z</time>
      </trkpt>
      <trkpt lat="44.62695" lon="-0.99246">
        <ele>10</ele>
        <time>2018-09-03T18:06:28.542Z</time>
      </trkpt>
      <trkpt lat="44.62677" lon="-0.9933">
        <ele>7</ele>
        <time>2018-09-03T18:06:29.555Z</time>
      </trkpt>
      <trkpt lat="44.62663" lon="-0.99461">
        <ele>6</ele>
        <time>2018-09-03T18:06:31.058Z</time>
      </trkpt>
      <trkpt lat="44.62663" lon="-0.99461">
        <ele>6</ele>
        <time>2018-09-03T18:06:31.058Z</time>
      </trkpt>
      <trkpt lat="44.62651" lon="-0.99575">
        <ele>6</ele>
        <time>2018-09-03T18:06:32.381Z</time>
      </trkpt>
      <trkpt lat="44.62651" lon="-0.99575">
        <ele>6</ele>
        <time>2018-09-03T18:06:32.381Z</time>
      </trkpt>
      <trkpt lat="44.62629" lon="-0.99857">
        <ele>7</ele>
        <time>2018-09-03T18:06:35.614Z</time>
      </trkpt>
      <trkpt lat="44.62636" lon="-0.99891">
        <ele>7</ele>
        <time>2018-09-03T18:06:36.021Z</time>
      </trkpt>
      <trkpt lat="44.62651" lon="-0.99902">
        <ele>7</ele>
        <time>2018-09-03T18:06:36.291Z</time>
      </trkpt>
      <trkpt lat="44.62654" lon="-0.99941">
        <ele>7</ele>
        <time>2018-09-03T18:06:36.740Z</time>
      </trkpt>
      <trkpt lat="44.62613" lon="-1.00041">
        <ele>8</ele>
        <time>2018-09-03T18:06:38.053Z</time>
      </trkpt>
      <trkpt lat="44.626" lon="-1.00106">
        <ele>9</ele>
        <time>2018-09-03T18:06:38.824Z</time>
      </trkpt>
      <trkpt lat="44.62584" lon="-1.0026">
        <ele>10</ele>
        <time>2018-09-03T18:06:40.606Z</time>
      </trkpt>
      <trkpt lat="44.62584" lon="-1.0026">
        <ele>10</ele>
        <time>2018-09-03T18:06:40.606Z</time>
      </trkpt>
      <trkpt lat="44.62578" lon="-1.00359">
        <ele>10</ele>
        <time>2018-09-03T18:06:41.735Z</time>
      </trkpt>
      <trkpt lat="44.62586" lon="-1.00403">
        <ele>12</ele>
        <time>2018-09-03T18:06:42.251Z</time>
      </trkpt>
      <trkpt lat="44.62769" lon="-1.01049">
        <ele>14</ele>
        <time>2018-09-03T18:06:50.180Z</time>
      </trkpt>
      <trkpt lat="44.62769" lon="-1.01049">
        <ele>14</ele>
        <time>2018-09-03T18:06:50.180Z</time>
      </trkpt>
      <trkpt lat="44.62775" lon="-1.01068">
        <ele>14</ele>
        <time>2018-09-03T18:06:50.422Z</time>
      </trkpt>
      <trkpt lat="44.62783" lon="-1.01098">
        <ele>12</ele>
        <time>2018-09-03T18:06:50.788Z</time>
      </trkpt>
      <trkpt lat="44.62776" lon="-1.01102">
        <ele>12</ele>
        <time>2018-09-03T18:06:50.906Z</time>
      </trkpt>
      <trkpt lat="44.62766" lon="-1.01106">
        <ele>12</ele>
        <time>2018-09-03T18:06:51.068Z</time>
      </trkpt>
      <trkpt lat="44.62763" lon="-1.01119">
        <ele>12</ele>
        <time>2018-09-03T18:06:51.224Z</time>
      </trkpt>
      <trkpt lat="44.62444" lon="-1.01131">
        <ele>13</ele>
        <time>2018-09-03T18:06:56.343Z</time>
      </trkpt>
      <trkpt lat="44.62444" lon="-1.01131">
        <ele>13</ele>
        <time>2018-09-03T18:06:56.343Z</time>
      </trkpt>
      <trkpt lat="44.62419" lon="-1.01134">
        <ele>13</ele>
        <time>2018-09-03T18:06:56.749Z</time>
      </trkpt>
      <trkpt lat="44.62392" lon="-1.01139">
        <ele>12</ele>
        <time>2018-09-03T18:06:57.173Z</time>
      </trkpt>
      <trkpt lat="44.62358" lon="-1.01133">
        <ele>13</ele>
        <time>2018-09-03T18:06:57.727Z</time>
      </trkpt>
      <trkpt lat="44.62067" lon="-1.01142">
        <ele>12</ele>
        <time>2018-09-03T18:07:02.398Z</time>
      </trkpt>
      <trkpt lat="44.62056" lon="-1.01154">
        <ele>12</ele>
        <time>2018-09-03T18:07:02.606Z</time>
      </trkpt>
      <trkpt lat="44.62055" lon="-1.01168">
        <ele>12</ele>
        <time>2018-09-03T18:07:02.767Z</time>
      </trkpt>
      <trkpt lat="44.62057" lon="-1.01172">
        <ele>12</ele>
        <time>2018-09-03T18:07:02.832Z</time>
      </trkpt>
      <trkpt lat="44.62082" lon="-1.01243">
        <ele>13</ele>
        <time>2018-09-03T18:07:03.726Z</time>
      </trkpt>
      <trkpt lat="44.62104" lon="-1.01338">
        <ele>13</ele>
        <time>2018-09-03T18:07:04.868Z</time>
      </trkpt>
      <trkpt lat="44.6214" lon="-1.01665">
        <ele>16</ele>
        <time>2018-09-03T18:07:08.645Z</time>
      </trkpt>
      <trkpt lat="44.6214" lon="-1.01665">
        <ele>16</ele>
        <time>2018-09-03T18:07:08.645Z</time>
      </trkpt>
      <trkpt lat="44.62157" lon="-1.01797">
        <ele>13</ele>
        <time>2018-09-03T18:07:10.183Z</time>
      </trkpt>
      <trkpt lat="44.62154" lon="-1.01833">
        <ele>13</ele>
        <time>2018-09-03T18:07:10.591Z</time>
      </trkpt>
      <trkpt lat="44.6216" lon="-1.01848">
        <ele>12</ele>
        <time>2018-09-03T18:07:10.796Z</time>
      </trkpt>
      <trkpt lat="44.62194" lon="-1.02038">
        <ele>10</ele>
        <time>2018-09-03T18:07:13.032Z</time>
      </trkpt>
      <trkpt lat="44.62248" lon="-1.02262">
        <ele>11</ele>
        <time>2018-09-03T18:07:15.731Z</time>
      </trkpt>
      <trkpt lat="44.62295" lon="-1.02409">
        <ele>11</ele>
        <time>2018-09-03T18:07:17.562Z</time>
      </trkpt>
      <trkpt lat="44.62286" lon="-1.02459">
        <ele>10</ele>
        <time>2018-09-03T18:07:18.148Z</time>
      </trkpt>
      <trkpt lat="44.62286" lon="-1.02459">
        <ele>10</ele>
        <time>2018-09-03T18:07:18.148Z</time>
      </trkpt>
      <trkpt lat="44.62289" lon="-1.0247">
        <ele>10</ele>
        <time>2018-09-03T18:07:18.284Z</time>
      </trkpt>
      <trkpt lat="44.62315" lon="-1.02486">
        <ele>9</ele>
        <time>2018-09-03T18:07:18.741Z</time>
      </trkpt>
      <trkpt lat="44.62342" lon="-1.02549">
        <ele>8</ele>
        <time>2018-09-03T18:07:19.591Z</time>
      </trkpt>
      <trkpt lat="44.62361" lon="-1.02608">
        <ele>9</ele>
        <time>2018-09-03T18:07:20.319Z</time>
      </trkpt>
      <trkpt lat="44.62393" lon="-1.02714">
        <ele>9</ele>
        <time>2018-09-03T18:07:21.631Z</time>
      </trkpt>
      <trkpt lat="44.62395" lon="-1.02755">
        <ele>9</ele>
        <time>2018-09-03T18:07:22.110Z</time>
      </trkpt>
      <trkpt lat="44.62395" lon="-1.02755">
        <ele>9</ele>
        <time>2018-09-03T18:07:22.110Z</time>
      </trkpt>
      <trkpt lat="44.62413" lon="-1.02776">
        <ele>9</ele>
        <time>2018-09-03T18:07:22.481Z</time>
      </trkpt>
      <trkpt lat="44.62571" lon="-1.03272">
        <ele>11</ele>
        <time>2018-09-03T18:07:28.680Z</time>
      </trkpt>
      <trkpt lat="44.62573" lon="-1.03315">
        <ele>10</ele>
        <time>2018-09-03T18:07:29.170Z</time>
      </trkpt>
      <trkpt lat="44.62573" lon="-1.03315">
        <ele>10</ele>
        <time>2018-09-03T18:07:29.171Z</time>
      </trkpt>
      <trkpt lat="44.62571" lon="-1.03324">
        <ele>10</ele>
        <time>2018-09-03T18:07:29.270Z</time>
      </trkpt>
      <trkpt lat="44.62589" lon="-1.03334">
        <ele>10</ele>
        <time>2018-09-03T18:07:29.569Z</time>
      </trkpt>
      <trkpt lat="44.62589" lon="-1.03334">
        <ele>10</ele>
        <time>2018-09-03T18:07:29.569Z</time>
      </trkpt>
      <trkpt lat="44.626" lon="-1.03337">
        <ele>10</ele>
        <time>2018-09-03T18:07:29.762Z</time>
      </trkpt>
      <trkpt lat="44.62614" lon="-1.03369">
        <ele>9</ele>
        <time>2018-09-03T18:07:30.182Z</time>
      </trkpt>
      <trkpt lat="44.6259" lon="-1.03444">
        <ele>9</ele>
        <time>2018-09-03T18:07:31.128Z</time>
      </trkpt>
      <trkpt lat="44.6259" lon="-1.03444">
        <ele>9</ele>
        <time>2018-09-03T18:07:31.128Z</time>
      </trkpt>
      <trkpt lat="44.62519" lon="-1.03576">
        <ele>9</ele>
        <time>2018-09-03T18:07:33.009Z</time>
      </trkpt>
      <trkpt lat="44.62476" lon="-1.03658">
        <ele>10</ele>
        <time>2018-09-03T18:07:34.166Z</time>
      </trkpt>
      <trkpt lat="44.62478" lon="-1.03667">
        <ele>10</ele>
        <time>2018-09-03T18:07:34.273Z</time>
      </trkpt>
      <trkpt lat="44.62489" lon="-1.03672">
        <ele>10</ele>
        <time>2018-09-03T18:07:34.464Z</time>
      </trkpt>
      <trkpt lat="44.625" lon="-1.03767">
        <ele>11</ele>
        <time>2018-09-03T18:07:35.554Z</time>
      </trkpt>
      <trkpt lat="44.62512" lon="-1.03906">
        <ele>12</ele>
        <time>2018-09-03T18:07:37.158Z</time>
      </trkpt>
      <trkpt lat="44.62499" lon="-1.03909">
        <ele>11</ele>
        <time>2018-09-03T18:07:37.367Z</time>
      </trkpt>
      <trkpt lat="44.62511" lon="-1.04014">
        <ele>11</ele>
        <time>2018-09-03T18:07:38.581Z</time>
      </trkpt>
      <trkpt lat="44.62315" lon="-1.04075">
        <ele>10</ele>
        <time>2018-09-03T18:07:41.797Z</time>
      </trkpt>
      <trkpt lat="44.62314" lon="-1.04083">
        <ele>10</ele>
        <time>2018-09-03T18:07:41.884Z</time>
      </trkpt>
      <trkpt lat="44.62314" lon="-1.04083">
        <ele>10</ele>
        <time>2018-09-03T18:07:41.884Z</time>
      </trkpt>
      <trkpt lat="44.62311" lon="-1.04159">
        <ele>9</ele>
        <time>2018-09-03T18:07:42.754Z</time>
      </trkpt>
      <trkpt lat="44.62333" lon="-1.04308">
        <ele>9</ele>
        <time>2018-09-03T18:07:44.492Z</time>
      </trkpt>
      <trkpt lat="44.62342" lon="-1.04335">
        <ele>9</ele>
        <time>2018-09-03T18:07:44.831Z</time>
      </trkpt>
      <trkpt lat="44.62338" lon="-1.04353">
        <ele>9</ele>
        <time>2018-09-03T18:07:45.050Z</time>
      </trkpt>
      <trkpt lat="44.62376" lon="-1.04594">
        <ele>11</ele>
        <time>2018-09-03T18:07:47.871Z</time>
      </trkpt>
      <trkpt lat="44.62413" lon="-1.04702">
        <ele>12</ele>
        <time>2018-09-03T18:07:49.231Z</time>
      </trkpt>
      <trkpt lat="44.62457" lon="-1.05004">
        <ele>13</ele>
        <time>2018-09-03T18:07:52.754Z</time>
      </trkpt>
      <trkpt lat="44.62508" lon="-1.05338">
        <ele>11</ele>
        <time>2018-09-03T18:07:56.654Z</time>
      </trkpt>
      <trkpt lat="44.62508" lon="-1.05338">
        <ele>11</ele>
        <time>2018-09-03T18:07:56.654Z</time>
      </trkpt>
      <trkpt lat="44.62534" lon="-1.0553">
        <ele>11</ele>
        <time>2018-09-03T18:07:58.885Z</time>
      </trkpt>
      <trkpt lat="44.62534" lon="-1.0553">
        <ele>11</ele>
        <time>2018-09-03T18:07:58.885Z</time>
      </trkpt>
      <trkpt lat="44.62533" lon="-1.0558">
        <ele>10</ele>
        <time>2018-09-03T18:07:59.454Z</time>
      </trkpt>
      <trkpt lat="44.62531" lon="-1.05644">
        <ele>9</ele>
        <time>2018-09-03T18:08:00.177Z</time>
      </trkpt>
      <trkpt lat="44.62532" lon="-1.05758">
        <ele>9</ele>
        <time>2018-09-03T18:08:01.481Z</time>
      </trkpt>
      <trkpt lat="44.62532" lon="-1.05758">
        <ele>9</ele>
        <time>2018-09-03T18:08:01.481Z</time>
      </trkpt>
      <trkpt lat="44.62533" lon="-1.05833">
        <ele>9</ele>
        <time>2018-09-03T18:08:02.338Z</time>
      </trkpt>
      <trkpt lat="44.62533" lon="-1.05842">
        <ele>9</ele>
        <time>2018-09-03T18:08:02.436Z</time>
      </trkpt>
      <trkpt lat="44.62533" lon="-1.05842">
        <ele>9</ele>
        <time>2018-09-03T18:08:02.436Z</time>
      </trkpt>
      <trkpt lat="44.62534" lon="-1.05889">
        <ele>9</ele>
        <time>2018-09-03T18:08:02.981Z</time>
      </trkpt>
      <trkpt lat="44.62534" lon="-1.05918">
        <ele>9</ele>
        <time>2018-09-03T18:08:03.306Z</time>
      </trkpt>
      <trkpt lat="44.62534" lon="-1.05932">
        <ele>9</ele>
        <time>2018-09-03T18:08:03.465Z</time>
      </trkpt>
      <trkpt lat="44.62534" lon="-1.05988">
        <ele>9</ele>
        <time>2018-09-03T18:08:04.102Z</time>
      </trkpt>
      <trkpt lat="44.62532" lon="-1.06058">
        <ele>10</ele>
        <time>2018-09-03T18:08:04.911Z</time>
      </trkpt>
      <trkpt lat="44.62532" lon="-1.06058">
        <ele>10</ele>
        <time>2018-09-03T18:08:04.911Z</time>
      </trkpt>
      <trkpt lat="44.62533" lon="-1.06149">
        <ele>10</ele>
        <time>2018-09-03T18:08:05.945Z</time>
      </trkpt>
      <trkpt lat="44.62546" lon="-1.06239">
        <ele>9</ele>
        <time>2018-09-03T18:08:06.995Z</time>
      </trkpt>
      <trkpt lat="44.62556" lon="-1.0626">
        <ele>9</ele>
        <time>2018-09-03T18:08:07.274Z</time>
      </trkpt>
      <trkpt lat="44.62556" lon="-1.06269">
        <ele>8</ele>
        <time>2018-09-03T18:08:07.384Z</time>
      </trkpt>
      <trkpt lat="44.62553" lon="-1.06287">
        <ele>8</ele>
        <time>2018-09-03T18:08:07.592Z</time>
      </trkpt>
      <trkpt lat="44.62531" lon="-1.06318">
        <ele>8</ele>
        <time>2018-09-03T18:08:08.086Z</time>
      </trkpt>
      <trkpt lat="44.62531" lon="-1.06318">
        <ele>8</ele>
        <time>2018-09-03T18:08:08.087Z</time>
      </trkpt>
      <trkpt lat="44.62504" lon="-1.06362">
        <ele>8</ele>
        <time>2018-09-03T18:08:08.754Z</time>
      </trkpt>
      <trkpt lat="44.62485" lon="-1.06415">
        <ele>8</ele>
        <time>2018-09-03T18:08:09.429Z</time>
      </trkpt>
      <trkpt lat="44.6246" lon="-1.06551">
        <ele>10</ele>
        <time>2018-09-03T18:08:11.033Z</time>
      </trkpt>
      <trkpt lat="44.62416" lon="-1.06708">
        <ele>9</ele>
        <time>2018-09-03T18:08:12.960Z</time>
      </trkpt>
      <trkpt lat="44.62407" lon="-1.06707">
        <ele>9</ele>
        <time>2018-09-03T18:08:13.098Z</time>
      </trkpt>
      <trkpt lat="44.62392" lon="-1.06709">
        <ele>9</ele>
        <time>2018-09-03T18:08:13.340Z</time>
      </trkpt>
      <trkpt lat="44.62348" lon="-1.06852">
        <ele>8</ele>
        <time>2018-09-03T18:08:15.118Z</time>
      </trkpt>
      <trkpt lat="44.62295" lon="-1.07074">
        <ele>8</ele>
        <time>2018-09-03T18:08:17.794Z</time>
      </trkpt>
      <trkpt lat="44.62295" lon="-1.07074">
        <ele>8</ele>
        <time>2018-09-03T18:08:17.794Z</time>
      </trkpt>
      <trkpt lat="44.62258" lon="-1.07219">
        <ele>8</ele>
        <time>2018-09-03T18:08:19.544Z</time>
      </trkpt>
      <trkpt lat="44.62244" lon="-1.07261">
        <ele>8</ele>
        <time>2018-09-03T18:08:20.075Z</time>
      </trkpt>
      <trkpt lat="44.62217" lon="-1.07292">
        <ele>9</ele>
        <time>2018-09-03T18:08:20.633Z</time>
      </trkpt>
      <trkpt lat="44.62194" lon="-1.073">
        <ele>10</ele>
        <time>2018-09-03T18:08:21.016Z</time>
      </trkpt>
      <trkpt lat="44.62105" lon="-1.07303">
        <ele>11</ele>
        <time>2018-09-03T18:08:22.435Z</time>
      </trkpt>
      <trkpt lat="44.62034" lon="-1.07311">
        <ele>12</ele>
        <time>2018-09-03T18:08:23.583Z</time>
      </trkpt>
      <trkpt lat="44.62034" lon="-1.07316">
        <ele>12</ele>
        <time>2018-09-03T18:08:23.638Z</time>
      </trkpt>
      <trkpt lat="44.62034" lon="-1.07336">
        <ele>12</ele>
        <time>2018-09-03T18:08:23.871Z</time>
      </trkpt>
      <trkpt lat="44.62034" lon="-1.07381">
        <ele>11</ele>
        <time>2018-09-03T18:08:24.385Z</time>
      </trkpt>
      <trkpt lat="44.62034" lon="-1.07381">
        <ele>11</ele>
        <time>2018-09-03T18:08:24.385Z</time>
      </trkpt>
      <trkpt lat="44.62034" lon="-1.07411">
        <ele>11</ele>
        <time>2018-09-03T18:08:24.722Z</time>
      </trkpt>
      <trkpt lat="44.62014" lon="-1.07451">
        <ele>9</ele>
        <time>2018-09-03T18:08:25.281Z</time>
      </trkpt>
      <trkpt lat="44.62015" lon="-1.07519">
        <ele>9</ele>
        <time>2018-09-03T18:08:26.058Z</time>
      </trkpt>
      <trkpt lat="44.62008" lon="-1.07543">
        <ele>9</ele>
        <time>2018-09-03T18:08:26.352Z</time>
      </trkpt>
      <trkpt lat="44.62008" lon="-1.07543">
        <ele>9</ele>
        <time>2018-09-03T18:08:26.352Z</time>
      </trkpt>
      <trkpt lat="44.61995" lon="-1.07732">
        <ele>11</ele>
        <time>2018-09-03T18:08:28.517Z</time>
      </trkpt>
      <trkpt lat="44.61995" lon="-1.07744">
        <ele>11</ele>
        <time>2018-09-03T18:08:28.658Z</time>
      </trkpt>
      <trkpt lat="44.61994" lon="-1.07754">
        <ele>11</ele>
        <time>2018-09-03T18:08:28.762Z</time>
      </trkpt>
      <trkpt lat="44.61994" lon="-1.07754">
        <ele>11</ele>
        <time>2018-09-03T18:08:28.762Z</time>
      </trkpt>
      <trkpt lat="44.61979" lon="-1.08007">
        <ele>12</ele>
        <time>2018-09-03T18:08:31.667Z</time>
      </trkpt>
      <trkpt lat="44.61968" lon="-1.08086">
        <ele>12</ele>
        <time>2018-09-03T18:08:32.577Z</time>
      </trkpt>
      <trkpt lat="44.61965" lon="-1.08198">
        <ele>9</ele>
        <time>2018-09-03T18:08:33.857Z</time>
      </trkpt>
      <trkpt lat="44.61953" lon="-1.08502">
        <ele>11</ele>
        <time>2018-09-03T18:08:37.333Z</time>
      </trkpt>
      <trkpt lat="44.61958" lon="-1.08584">
        <ele>12</ele>
        <time>2018-09-03T18:08:38.272Z</time>
      </trkpt>
      <trkpt lat="44.61958" lon="-1.08584">
        <ele>12</ele>
        <time>2018-09-03T18:08:38.272Z</time>
      </trkpt>
      <trkpt lat="44.61956" lon="-1.08644">
        <ele>13</ele>
        <time>2018-09-03T18:08:38.958Z</time>
      </trkpt>
      <trkpt lat="44.61987" lon="-1.08906">
        <ele>16</ele>
        <time>2018-09-03T18:08:41.985Z</time>
      </trkpt>
      <trkpt lat="44.62015" lon="-1.09111">
        <ele>12</ele>
        <time>2018-09-03T18:08:44.372Z</time>
      </trkpt>
      <trkpt lat="44.62038" lon="-1.09266">
        <ele>12</ele>
        <time>2018-09-03T18:08:46.173Z</time>
      </trkpt>
      <trkpt lat="44.62038" lon="-1.09266">
        <ele>12</ele>
        <time>2018-09-03T18:08:46.173Z</time>
      </trkpt>
      <trkpt lat="44.62093" lon="-1.09576">
        <ele>11</ele>
        <time>2018-09-03T18:08:49.822Z</time>
      </trkpt>
      <trkpt lat="44.62093" lon="-1.09576">
        <ele>11</ele>
        <time>2018-09-03T18:08:49.822Z</time>
      </trkpt>
      <trkpt lat="44.6211" lon="-1.09669">
        <ele>9</ele>
        <time>2018-09-03T18:08:50.918Z</time>
      </trkpt>
      <trkpt lat="44.62169" lon="-1.09913">
        <ele>12</ele>
        <time>2018-09-03T18:08:53.859Z</time>
      </trkpt>
      <trkpt lat="44.62198" lon="-1.1001">
        <ele>11</ele>
        <time>2018-09-03T18:08:55.064Z</time>
      </trkpt>
      <trkpt lat="44.62201" lon="-1.10021">
        <ele>11</ele>
        <time>2018-09-03T18:08:55.197Z</time>
      </trkpt>
      <trkpt lat="44.62251" lon="-1.10205">
        <ele>11</ele>
        <time>2018-09-03T18:08:57.444Z</time>
      </trkpt>
      <trkpt lat="44.6226" lon="-1.10274">
        <ele>11</ele>
        <time>2018-09-03T18:08:58.241Z</time>
      </trkpt>
      <trkpt lat="44.62275" lon="-1.10304">
        <ele>11</ele>
        <time>2018-09-03T18:08:58.665Z</time>
      </trkpt>
      <trkpt lat="44.62295" lon="-1.10376">
        <ele>9</ele>
        <time>2018-09-03T18:08:59.542Z</time>
      </trkpt>
      <trkpt lat="44.62315" lon="-1.10408">
        <ele>9</ele>
        <time>2018-09-03T18:09:00.034Z</time>
      </trkpt>
      <trkpt lat="44.62315" lon="-1.10408">
        <ele>9</ele>
        <time>2018-09-03T18:09:00.034Z</time>
      </trkpt>
      <trkpt lat="44.62362" lon="-1.10452">
        <ele>9</ele>
        <time>2018-09-03T18:09:00.939Z</time>
      </trkpt>
      <trkpt lat="44.62391" lon="-1.10448">
        <ele>8</ele>
        <time>2018-09-03T18:09:01.397Z</time>
      </trkpt>
      <trkpt lat="44.62391" lon="-1.10448">
        <ele>8</ele>
        <time>2018-09-03T18:09:01.397Z</time>
      </trkpt>
      <trkpt lat="44.62438" lon="-1.10542">
        <ele>10</ele>
        <time>2018-09-03T18:09:02.708Z</time>
      </trkpt>
      <trkpt lat="44.62483" lon="-1.10675">
        <ele>9</ele>
        <time>2018-09-03T18:09:04.393Z</time>
      </trkpt>
      <trkpt lat="44.62424" lon="-1.10673">
        <ele>10</ele>
        <time>2018-09-03T18:09:05.339Z</time>
      </trkpt>
      <trkpt lat="44.62398" lon="-1.10689">
        <ele>10</ele>
        <time>2018-09-03T18:09:05.807Z</time>
      </trkpt>
      <trkpt lat="44.62372" lon="-1.10719">
        <ele>10</ele>
        <time>2018-09-03T18:09:06.341Z</time>
      </trkpt>
      <trkpt lat="44.62341" lon="-1.10803">
        <ele>11</ele>
        <time>2018-09-03T18:09:07.413Z</time>
      </trkpt>
      <trkpt lat="44.62323" lon="-1.10789">
        <ele>11</ele>
        <time>2018-09-03T18:09:07.743Z</time>
      </trkpt>
      <trkpt lat="44.62323" lon="-1.10789">
        <ele>11</ele>
        <time>2018-09-03T18:09:07.743Z</time>
      </trkpt>
      <trkpt lat="44.62168" lon="-1.10657">
        <ele>10</ele>
        <time>2018-09-03T18:09:10.652Z</time>
      </trkpt>
      <trkpt lat="44.62168" lon="-1.10657">
        <ele>10</ele>
        <time>2018-09-03T18:09:10.652Z</time>
      </trkpt>
      <trkpt lat="44.62083" lon="-1.10582">
        <ele>14</ele>
        <time>2018-09-03T18:09:12.263Z</time>
      </trkpt>
      <trkpt lat="44.62074" lon="-1.10594">
        <ele>14</ele>
        <time>2018-09-03T18:09:12.462Z</time>
      </trkpt>
      <trkpt lat="44.62074" lon="-1.10594">
        <ele>14</ele>
        <time>2018-09-03T18:09:12.462Z</time>
      </trkpt>
      <trkpt lat="44.6206" lon="-1.10614">
        <ele>14</ele>
        <time>2018-09-03T18:09:12.779Z</time>
      </trkpt>
      <trkpt lat="44.61682" lon="-1.10722">
        <ele>13</ele>
        <time>2018-09-03T18:09:18.964Z</time>
      </trkpt>
      <trkpt lat="44.61672" lon="-1.10728">
        <ele>14</ele>
        <time>2018-09-03T18:09:19.135Z</time>
      </trkpt>
      <trkpt lat="44.61675" lon="-1.10751">
        <ele>14</ele>
        <time>2018-09-03T18:09:19.402Z</time>
      </trkpt>
      <trkpt lat="44.61678" lon="-1.10847">
        <ele>13</ele>
        <time>2018-09-03T18:09:20.499Z</time>
      </trkpt>
      <trkpt lat="44.61678" lon="-1.10847">
        <ele>13</ele>
        <time>2018-09-03T18:09:20.499Z</time>
      </trkpt>
      <trkpt lat="44.61688" lon="-1.10934">
        <ele>13</ele>
        <time>2018-09-03T18:09:21.499Z</time>
      </trkpt>
      <trkpt lat="44.61717" lon="-1.11177">
        <ele>11</ele>
        <time>2018-09-03T18:09:24.309Z</time>
      </trkpt>
      <trkpt lat="44.61713" lon="-1.11183">
        <ele>11</ele>
        <time>2018-09-03T18:09:24.410Z</time>
      </trkpt>
      <trkpt lat="44.61709" lon="-1.11192">
        <ele>11</ele>
        <time>2018-09-03T18:09:24.525Z</time>
      </trkpt>
      <trkpt lat="44.6172" lon="-1.11276">
        <ele>11</ele>
        <time>2018-09-03T18:09:25.501Z</time>
      </trkpt>
      <trkpt lat="44.61724" lon="-1.11279">
        <ele>11</ele>
        <time>2018-09-03T18:09:25.587Z</time>
      </trkpt>
      <trkpt lat="44.61724" lon="-1.11279">
        <ele>11</ele>
        <time>2018-09-03T18:09:25.587Z</time>
      </trkpt>
      <trkpt lat="44.61737" lon="-1.11278">
        <ele>11</ele>
        <time>2018-09-03T18:09:25.794Z</time>
      </trkpt>
      <trkpt lat="44.61745" lon="-1.11299">
        <ele>12</ele>
        <time>2018-09-03T18:09:26.065Z</time>
      </trkpt>
      <trkpt lat="44.61773" lon="-1.11469">
        <ele>15</ele>
        <time>2018-09-03T18:09:28.062Z</time>
      </trkpt>
      <trkpt lat="44.61796" lon="-1.11664">
        <ele>14</ele>
        <time>2018-09-03T18:09:30.309Z</time>
      </trkpt>
      <trkpt lat="44.61796" lon="-1.11664">
        <ele>14</ele>
        <time>2018-09-03T18:09:30.309Z</time>
      </trkpt>
      <trkpt lat="44.61835" lon="-1.12019">
        <ele>13</ele>
        <time>2018-09-03T18:09:34.416Z</time>
      </trkpt>
      <trkpt lat="44.61826" lon="-1.12046">
        <ele>12</ele>
        <time>2018-09-03T18:09:34.755Z</time>
      </trkpt>
      <trkpt lat="44.61827" lon="-1.12065">
        <ele>13</ele>
        <time>2018-09-03T18:09:34.976Z</time>
      </trkpt>
      <trkpt lat="44.61827" lon="-1.12065">
        <ele>13</ele>
        <time>2018-09-03T18:09:34.976Z</time>
      </trkpt>
      <trkpt lat="44.61842" lon="-1.12185">
        <ele>10</ele>
        <time>2018-09-03T18:09:36.356Z</time>
      </trkpt>
      <trkpt lat="44.61866" lon="-1.12269">
        <ele>8</ele>
        <time>2018-09-03T18:09:37.392Z</time>
      </trkpt>
      <trkpt lat="44.61861" lon="-1.12318">
        <ele>7</ele>
        <time>2018-09-03T18:09:37.962Z</time>
      </trkpt>
      <trkpt lat="44.61891" lon="-1.12425">
        <ele>7</ele>
        <time>2018-09-03T18:09:39.272Z</time>
      </trkpt>
      <trkpt lat="44.61902" lon="-1.12448">
        <ele>8</ele>
        <time>2018-09-03T18:09:39.596Z</time>
      </trkpt>
      <trkpt lat="44.61916" lon="-1.12487">
        <ele>8</ele>
        <time>2018-09-03T18:09:40.086Z</time>
      </trkpt>
      <trkpt lat="44.61887" lon="-1.12529">
        <ele>9</ele>
        <time>2018-09-03T18:09:40.756Z</time>
      </trkpt>
      <trkpt lat="44.61883" lon="-1.12549">
        <ele>10</ele>
        <time>2018-09-03T18:09:40.999Z</time>
      </trkpt>
      <trkpt lat="44.61875" lon="-1.12553">
        <ele>10</ele>
        <time>2018-09-03T18:09:41.127Z</time>
      </trkpt>
      <trkpt lat="44.6184" lon="-1.1255">
        <ele>9</ele>
        <time>2018-09-03T18:09:41.687Z</time>
      </trkpt>
      <trkpt lat="44.61828" lon="-1.12554">
        <ele>9</ele>
        <time>2018-09-03T18:09:41.891Z</time>
      </trkpt>
      <trkpt lat="44.61828" lon="-1.12554">
        <ele>9</ele>
        <time>2018-09-03T18:09:41.891Z</time>
      </trkpt>
      <trkpt lat="44.61807" lon="-1.12561">
        <ele>9</ele>
        <time>2018-09-03T18:09:42.234Z</time>
      </trkpt>
      <trkpt lat="44.61757" lon="-1.12607">
        <ele>10</ele>
        <time>2018-09-03T18:09:43.202Z</time>
      </trkpt>
      <trkpt lat="44.6168" lon="-1.12638">
        <ele>10</ele>
        <time>2018-09-03T18:09:44.474Z</time>
      </trkpt>
      <trkpt lat="44.61667" lon="-1.12646">
        <ele>10</ele>
        <time>2018-09-03T18:09:44.705Z</time>
      </trkpt>
      <trkpt lat="44.61595" lon="-1.12682">
        <ele>10</ele>
        <time>2018-09-03T18:09:45.938Z</time>
      </trkpt>
      <trkpt lat="44.61582" lon="-1.12696">
        <ele>10</ele>
        <time>2018-09-03T18:09:46.199Z</time>
      </trkpt>
      <trkpt lat="44.61561" lon="-1.12702">
        <ele>10</ele>
        <time>2018-09-03T18:09:46.533Z</time>
      </trkpt>
      <trkpt lat="44.6145" lon="-1.1276">
        <ele>9</ele>
        <time>2018-09-03T18:09:48.432Z</time>
      </trkpt>
      <trkpt lat="44.6145" lon="-1.1276">
        <ele>9</ele>
        <time>2018-09-03T18:09:48.432Z</time>
      </trkpt>
      <trkpt lat="44.61349" lon="-1.12814">
        <ele>9</ele>
        <time>2018-09-03T18:09:50.163Z</time>
      </trkpt>
      <trkpt lat="44.61223" lon="-1.12874">
        <ele>8</ele>
        <time>2018-09-03T18:09:52.295Z</time>
      </trkpt>
      <trkpt lat="44.61122" lon="-1.12932">
        <ele>9</ele>
        <time>2018-09-03T18:09:54.052Z</time>
      </trkpt>
      <trkpt lat="44.61109" lon="-1.1296">
        <ele>8</ele>
        <time>2018-09-03T18:09:54.436Z</time>
      </trkpt>
      <trkpt lat="44.6111" lon="-1.13021">
        <ele>8</ele>
        <time>2018-09-03T18:09:55.134Z</time>
      </trkpt>
      <trkpt lat="44.6109" lon="-1.13114">
        <ele>8</ele>
        <time>2018-09-03T18:09:56.240Z</time>
      </trkpt>
      <trkpt lat="44.6109" lon="-1.13114">
        <ele>8</ele>
        <time>2018-09-03T18:09:56.240Z</time>
      </trkpt>
      <trkpt lat="44.61045" lon="-1.13265">
        <ele>9</ele>
        <time>2018-09-03T18:09:58.106Z</time>
      </trkpt>
      <trkpt lat="44.61057" lon="-1.13305">
        <ele>9</ele>
        <time>2018-09-03T18:09:58.600Z</time>
      </trkpt>
      <trkpt lat="44.61054" lon="-1.13315">
        <ele>9</ele>
        <time>2018-09-03T18:09:58.727Z</time>
      </trkpt>
      <trkpt lat="44.61048" lon="-1.13334">
        <ele>10</ele>
        <time>2018-09-03T18:09:58.958Z</time>
      </trkpt>
      <trkpt lat="44.61029" lon="-1.13336">
        <ele>10</ele>
        <time>2018-09-03T18:09:59.269Z</time>
      </trkpt>
      <trkpt lat="44.61009" lon="-1.13361">
        <ele>11</ele>
        <time>2018-09-03T18:09:59.694Z</time>
      </trkpt>
      <trkpt lat="44.61003" lon="-1.13357">
        <ele>11</ele>
        <time>2018-09-03T18:09:59.798Z</time>
      </trkpt>
      <trkpt lat="44.60985" lon="-1.13346">
        <ele>11</ele>
        <time>2018-09-03T18:10:00.125Z</time>
      </trkpt>
      <trkpt lat="44.60987" lon="-1.13374">
        <ele>12</ele>
        <time>2018-09-03T18:10:00.451Z</time>
      </trkpt>
      <trkpt lat="44.60956" lon="-1.1351">
        <ele>12</ele>
        <time>2018-09-03T18:10:02.072Z</time>
      </trkpt>
      <trkpt lat="44.60962" lon="-1.13511">
        <ele>12</ele>
        <time>2018-09-03T18:10:02.168Z</time>
      </trkpt>
      <trkpt lat="44.60969" lon="-1.13514">
        <ele>12</ele>
        <time>2018-09-03T18:10:02.292Z</time>
      </trkpt>
      <trkpt lat="44.60969" lon="-1.1355">
        <ele>12</ele>
        <time>2018-09-03T18:10:02.702Z</time>
      </trkpt>
      <trkpt lat="44.60968" lon="-1.13583">
        <ele>12</ele>
        <time>2018-09-03T18:10:03.082Z</time>
      </trkpt>
      <trkpt lat="44.60977" lon="-1.1363">
        <ele>13</ele>
        <time>2018-09-03T18:10:03.632Z</time>
      </trkpt>
      <trkpt lat="44.61018" lon="-1.13744">
        <ele>15</ele>
        <time>2018-09-03T18:10:05.104Z</time>
      </trkpt>
      <trkpt lat="44.61031" lon="-1.13818">
        <ele>14</ele>
        <time>2018-09-03T18:10:05.968Z</time>
      </trkpt>
      <trkpt lat="44.61031" lon="-1.13818">
        <ele>14</ele>
        <time>2018-09-03T18:10:05.968Z</time>
      </trkpt>
      <trkpt lat="44.61039" lon="-1.13988">
        <ele>14</ele>
        <time>2018-09-03T18:10:07.913Z</time>
      </trkpt>
      <trkpt lat="44.61059" lon="-1.14048">
        <ele>13</ele>
        <time>2018-09-03T18:10:08.660Z</time>
      </trkpt>
      <trkpt lat="44.61125" lon="-1.1415">
        <ele>15</ele>
        <time>2018-09-03T18:10:10.243Z</time>
      </trkpt>
      <trkpt lat="44.61125" lon="-1.1415">
        <ele>15</ele>
        <time>2018-09-03T18:10:10.243Z</time>
      </trkpt>
      <trkpt lat="44.61153" lon="-1.14212">
        <ele>17</ele>
        <time>2018-09-03T18:10:11.077Z</time>
      </trkpt>
      <trkpt lat="44.61166" lon="-1.14286">
        <ele>19</ele>
        <time>2018-09-03T18:10:11.949Z</time>
      </trkpt>
      <trkpt lat="44.61166" lon="-1.14344">
        <ele>19</ele>
        <time>2018-09-03T18:10:12.610Z</time>
      </trkpt>
      <trkpt lat="44.61138" lon="-1.1449">
        <ele>17</ele>
        <time>2018-09-03T18:10:14.334Z</time>
      </trkpt>
      <trkpt lat="44.6114" lon="-1.14504">
        <ele>16</ele>
        <time>2018-09-03T18:10:14.501Z</time>
      </trkpt>
      <trkpt lat="44.6115" lon="-1.14511">
        <ele>16</ele>
        <time>2018-09-03T18:10:14.683Z</time>
      </trkpt>
      <trkpt lat="44.6115" lon="-1.14511">
        <ele>16</ele>
        <time>2018-09-03T18:10:14.683Z</time>
      </trkpt>
      <trkpt lat="44.61158" lon="-1.14527">
        <ele>16</ele>
        <time>2018-09-03T18:10:14.908Z</time>
      </trkpt>
      <trkpt lat="44.61167" lon="-1.14634">
        <ele>15</ele>
        <time>2018-09-03T18:10:16.146Z</time>
      </trkpt>
      <trkpt lat="44.61192" lon="-1.14698">
        <ele>15</ele>
        <time>2018-09-03T18:10:16.975Z</time>
      </trkpt>
      <trkpt lat="44.61214" lon="-1.14729">
        <ele>15</ele>
        <time>2018-09-03T18:10:17.475Z</time>
      </trkpt>
      <trkpt lat="44.61244" lon="-1.14757">
        <ele>15</ele>
        <time>2018-09-03T18:10:18.059Z</time>
      </trkpt>
      <trkpt lat="44.61304" lon="-1.14776">
        <ele>17</ele>
        <time>2018-09-03T18:10:19.045Z</time>
      </trkpt>
      <trkpt lat="44.61311" lon="-1.14777">
        <ele>17</ele>
        <time>2018-09-03T18:10:19.158Z</time>
      </trkpt>
      <trkpt lat="44.6131" lon="-1.14785">
        <ele>17</ele>
        <time>2018-09-03T18:10:19.253Z</time>
      </trkpt>
      <trkpt lat="44.61303" lon="-1.14847">
        <ele>17</ele>
        <time>2018-09-03T18:10:19.965Z</time>
      </trkpt>
      <trkpt lat="44.61303" lon="-1.14847">
        <ele>17</ele>
        <time>2018-09-03T18:10:19.965Z</time>
      </trkpt>
      <trkpt lat="44.6129" lon="-1.15061">
        <ele>20</ele>
        <time>2018-09-03T18:10:22.423Z</time>
      </trkpt>
      <trkpt lat="44.61291" lon="-1.15144">
        <ele>18</ele>
        <time>2018-09-03T18:10:23.366Z</time>
      </trkpt>
      <trkpt lat="44.61322" lon="-1.15343">
        <ele>19</ele>
        <time>2018-09-03T18:10:25.688Z</time>
      </trkpt>
      <trkpt lat="44.61316" lon="-1.15387">
        <ele>20</ele>
        <time>2018-09-03T18:10:26.191Z</time>
      </trkpt>
      <trkpt lat="44.6129" lon="-1.1543">
        <ele>25</ele>
        <time>2018-09-03T18:10:26.836Z</time>
      </trkpt>
      <trkpt lat="44.61246" lon="-1.15473">
        <ele>31</ele>
        <time>2018-09-03T18:10:27.695Z</time>
      </trkpt>
      <trkpt lat="44.60921" lon="-1.1567">
        <ele>19</ele>
        <time>2018-09-03T18:10:33.380Z</time>
      </trkpt>
      <trkpt lat="44.60921" lon="-1.1567">
        <ele>19</ele>
        <time>2018-09-03T18:10:33.380Z</time>
      </trkpt>
      <trkpt lat="44.6088" lon="-1.15659">
        <ele>19</ele>
        <time>2018-09-03T18:10:34.056Z</time>
      </trkpt>
      <trkpt lat="44.60875" lon="-1.15663">
        <ele>19</ele>
        <time>2018-09-03T18:10:34.140Z</time>
      </trkpt>
      <trkpt lat="44.60863" lon="-1.15672">
        <ele>19</ele>
        <time>2018-09-03T18:10:34.356Z</time>
      </trkpt>
      <trkpt lat="44.60854" lon="-1.15676">
        <ele>19</ele>
        <time>2018-09-03T18:10:34.517Z</time>
      </trkpt>
      <trkpt lat="44.60844" lon="-1.15725">
        <ele>18</ele>
        <time>2018-09-03T18:10:35.101Z</time>
      </trkpt>
      <trkpt lat="44.6082" lon="-1.15763">
        <ele>19</ele>
        <time>2018-09-03T18:10:35.678Z</time>
      </trkpt>
      <trkpt lat="44.6082" lon="-1.15763">
        <ele>19</ele>
        <time>2018-09-03T18:10:35.678Z</time>
      </trkpt>
      <trkpt lat="44.60746" lon="-1.15862">
        <ele>23</ele>
        <time>2018-09-03T18:10:37.319Z</time>
      </trkpt>
      <trkpt lat="44.60707" lon="-1.15927">
        <ele>24</ele>
        <time>2018-09-03T18:10:38.285Z</time>
      </trkpt>
      <trkpt lat="44.60449" lon="-1.16427">
        <ele>26</ele>
        <time>2018-09-03T18:10:45.343Z</time>
      </trkpt>
      <trkpt lat="44.60449" lon="-1.16427">
        <ele>26</ele>
        <time>2018-09-03T18:10:45.343Z</time>
      </trkpt>
      <trkpt lat="44.604" lon="-1.1652">
        <ele>28</ele>
        <time>2018-09-03T18:10:46.650Z</time>
      </trkpt>
      <trkpt lat="44.6037" lon="-1.16605">
        <ele>27</ele>
        <time>2018-09-03T18:10:47.740Z</time>
      </trkpt>
      <trkpt lat="44.60358" lon="-1.16695">
        <ele>28</ele>
        <time>2018-09-03T18:10:48.788Z</time>
      </trkpt>
      <trkpt lat="44.60369" lon="-1.16878">
        <ele>29</ele>
        <time>2018-09-03T18:10:50.890Z</time>
      </trkpt>
      <trkpt lat="44.60368" lon="-1.16949">
        <ele>27</ele>
        <time>2018-09-03T18:10:51.698Z</time>
      </trkpt>
      <trkpt lat="44.6034" lon="-1.17052">
        <ele>27</ele>
        <time>2018-09-03T18:10:52.956Z</time>
      </trkpt>
      <trkpt lat="44.60306" lon="-1.17122">
        <ele>28</ele>
        <time>2018-09-03T18:10:53.929Z</time>
      </trkpt>
      <trkpt lat="44.60103" lon="-1.17504">
        <ele>27</ele>
        <time>2018-09-03T18:10:59.357Z</time>
      </trkpt>
      <trkpt lat="44.60056" lon="-1.17627">
        <ele>27</ele>
        <time>2018-09-03T18:11:00.960Z</time>
      </trkpt>
      <trkpt lat="44.60056" lon="-1.17627">
        <ele>27</ele>
        <time>2018-09-03T18:11:00.960Z</time>
      </trkpt>
      <trkpt lat="44.60047" lon="-1.17698">
        <ele>25</ele>
        <time>2018-09-03T18:11:01.772Z</time>
      </trkpt>
      <trkpt lat="44.60048" lon="-1.17779">
        <ele>24</ele>
        <time>2018-09-03T18:11:02.697Z</time>
      </trkpt>
      <trkpt lat="44.60079" lon="-1.18313">
        <ele>38</ele>
        <time>2018-09-03T18:11:08.822Z</time>
      </trkpt>
      <trkpt lat="44.60059" lon="-1.18429">
        <ele>42</ele>
        <time>2018-09-03T18:11:10.176Z</time>
      </trkpt>
      <trkpt lat="44.60046" lon="-1.18474">
        <ele>42</ele>
        <time>2018-09-03T18:11:10.739Z</time>
      </trkpt>
      <trkpt lat="44.59863" lon="-1.18889">
        <ele>36</ele>
        <time>2018-09-03T18:11:16.303Z</time>
      </trkpt>
      <trkpt lat="44.59844" lon="-1.18961">
        <ele>34</ele>
        <time>2018-09-03T18:11:17.183Z</time>
      </trkpt>
      <trkpt lat="44.5983" lon="-1.19043">
        <ele>37</ele>
        <time>2018-09-03T18:11:18.146Z</time>
      </trkpt>
      <trkpt lat="44.59826" lon="-1.19142">
        <ele>37</ele>
        <time>2018-09-03T18:11:19.274Z</time>
      </trkpt>
      <trkpt lat="44.59848" lon="-1.1935">
        <ele>40</ele>
        <time>2018-09-03T18:11:21.676Z</time>
      </trkpt>
      <trkpt lat="44.59852" lon="-1.19439">
        <ele>38</ele>
        <time>2018-09-03T18:11:22.694Z</time>
      </trkpt>
      <trkpt lat="44.59852" lon="-1.19439">
        <ele>38</ele>
        <time>2018-09-03T18:11:22.694Z</time>
      </trkpt>
      <trkpt lat="44.59847" lon="-1.19537">
        <ele>36</ele>
        <time>2018-09-03T18:11:23.821Z</time>
      </trkpt>
      <trkpt lat="44.59847" lon="-1.19538">
        <ele>36</ele>
        <time>2018-09-03T18:11:23.823Z</time>
      </trkpt>
      <trkpt lat="44.59847" lon="-1.19538">
        <ele>36</ele>
        <time>2018-09-03T18:11:23.823Z</time>
      </trkpt>
      <trkpt lat="44.59846" lon="-1.19562">
        <ele>36</ele>
        <time>2018-09-03T18:11:24.099Z</time>
      </trkpt>
      <trkpt lat="44.59832" lon="-1.19607">
        <ele>37</ele>
        <time>2018-09-03T18:11:24.656Z</time>
      </trkpt>
      <trkpt lat="44.59837" lon="-1.19607">
        <ele>36</ele>
        <time>2018-09-03T18:11:24.734Z</time>
      </trkpt>
      <trkpt lat="44.5985" lon="-1.19612">
        <ele>36</ele>
        <time>2018-09-03T18:11:24.939Z</time>
      </trkpt>
      <trkpt lat="44.59867" lon="-1.19636">
        <ele>35</ele>
        <time>2018-09-03T18:11:25.330Z</time>
      </trkpt>
      <trkpt lat="44.59873" lon="-1.19669">
        <ele>35</ele>
        <time>2018-09-03T18:11:25.719Z</time>
      </trkpt>
      <trkpt lat="44.59872" lon="-1.19677">
        <ele>35</ele>
        <time>2018-09-03T18:11:25.812Z</time>
      </trkpt>
      <trkpt lat="44.59866" lon="-1.19695">
        <ele>36</ele>
        <time>2018-09-03T18:11:26.032Z</time>
      </trkpt>
      <trkpt lat="44.59853" lon="-1.19712">
        <ele>36</ele>
        <time>2018-09-03T18:11:26.317Z</time>
      </trkpt>
      <trkpt lat="44.59828" lon="-1.1972">
        <ele>39</ele>
        <time>2018-09-03T18:11:26.731Z</time>
      </trkpt>
      <trkpt lat="44.59814" lon="-1.19713">
        <ele>39</ele>
        <time>2018-09-03T18:11:26.975Z</time>
      </trkpt>
      <trkpt lat="44.59798" lon="-1.19694">
        <ele>39</ele>
        <time>2018-09-03T18:11:27.312Z</time>
      </trkpt>
      <trkpt lat="44.59792" lon="-1.19666">
        <ele>38</ele>
        <time>2018-09-03T18:11:27.644Z</time>
      </trkpt>
      <trkpt lat="44.59793" lon="-1.19649">
        <ele>38</ele>
        <time>2018-09-03T18:11:27.835Z</time>
      </trkpt>
      <trkpt lat="44.59795" lon="-1.19641">
        <ele>38</ele>
        <time>2018-09-03T18:11:27.939Z</time>
      </trkpt>
      <trkpt lat="44.59676" lon="-1.19598">
        <ele>39</ele>
        <time>2018-09-03T18:11:29.917Z</time>
      </trkpt>
      <trkpt lat="44.59562" lon="-1.1957">
        <ele>42</ele>
        <time>2018-09-03T18:11:31.769Z</time>
      </trkpt>
      <trkpt lat="44.59434" lon="-1.19565">
        <ele>36</ele>
        <time>2018-09-03T18:11:33.825Z</time>
      </trkpt>
      <trkpt lat="44.59162" lon="-1.19621">
        <ele>32</ele>
        <time>2018-09-03T18:11:38.231Z</time>
      </trkpt>
      <trkpt lat="44.59138" lon="-1.19636">
        <ele>32</ele>
        <time>2018-09-03T18:11:38.657Z</time>
      </trkpt>
      <trkpt lat="44.59082" lon="-1.19702">
        <ele>34</ele>
        <time>2018-09-03T18:11:39.822Z</time>
      </trkpt>
      <trkpt lat="44.58971" lon="-1.19824">
        <ele>37</ele>
        <time>2018-09-03T18:11:42.078Z</time>
      </trkpt>
      <trkpt lat="44.58971" lon="-1.19824">
        <ele>37</ele>
        <time>2018-09-03T18:11:42.078Z</time>
      </trkpt>
      <trkpt lat="44.58865" lon="-1.19967">
        <ele>40</ele>
        <time>2018-09-03T18:11:44.435Z</time>
      </trkpt>
      <trkpt lat="44.58818" lon="-1.20088">
        <ele>39</ele>
        <time>2018-09-03T18:11:46.018Z</time>
      </trkpt>
      <trkpt lat="44.58799" lon="-1.20158">
        <ele>40</ele>
        <time>2018-09-03T18:11:46.869Z</time>
      </trkpt>
      <trkpt lat="44.58762" lon="-1.20293">
        <ele>41</ele>
        <time>2018-09-03T18:11:48.517Z</time>
      </trkpt>
      <trkpt lat="44.58717" lon="-1.20395">
        <ele>37</ele>
        <time>2018-09-03T18:11:49.891Z</time>
      </trkpt>
      <trkpt lat="44.58689" lon="-1.20452">
        <ele>35</ele>
        <time>2018-09-03T18:11:50.680Z</time>
      </trkpt>
      <trkpt lat="44.58689" lon="-1.20452">
        <ele>35</ele>
        <time>2018-09-03T18:11:50.680Z</time>
      </trkpt>
      <trkpt lat="44.58498" lon="-1.20834">
        <ele>38</ele>
        <time>2018-09-03T18:11:56.003Z</time>
      </trkpt>
      <trkpt lat="44.58467" lon="-1.20882">
        <ele>42</ele>
        <time>2018-09-03T18:11:56.751Z</time>
      </trkpt>
      <trkpt lat="44.58417" lon="-1.20961">
        <ele>44</ele>
        <time>2018-09-03T18:11:57.961Z</time>
      </trkpt>
      <trkpt lat="44.58327" lon="-1.21067">
        <ele>52</ele>
        <time>2018-09-03T18:11:59.841Z</time>
      </trkpt>
      <trkpt lat="44.58292" lon="-1.21117">
        <ele>55</ele>
        <time>2018-09-03T18:12:00.635Z</time>
      </trkpt>
      <trkpt lat="44.58249" lon="-1.21157">
        <ele>57</ele>
        <time>2018-09-03T18:12:01.469Z</time>
      </trkpt>
      <trkpt lat="44.58112" lon="-1.21205">
        <ele>55</ele>
        <time>2018-09-03T18:12:03.730Z</time>
      </trkpt>
      <trkpt lat="44.58" lon="-1.21249">
        <ele>62</ele>
        <time>2018-09-03T18:12:05.596Z</time>
      </trkpt>
      <trkpt lat="44.57933" lon="-1.21262">
        <ele>58</ele>
        <time>2018-09-03T18:12:06.672Z</time>
      </trkpt>
      <trkpt lat="44.5778" lon="-1.21269">
        <ele>59</ele>
        <time>2018-09-03T18:12:09.124Z</time>
      </trkpt>
      <trkpt lat="44.5771" lon="-1.21284">
        <ele>60</ele>
        <time>2018-09-03T18:12:10.272Z</time>
      </trkpt>
      <trkpt lat="44.57656" lon="-1.21314">
        <ele>60</ele>
        <time>2018-09-03T18:12:11.198Z</time>
      </trkpt>
      <trkpt lat="44.57603" lon="-1.2136">
        <ele>63</ele>
        <time>2018-09-03T18:12:12.202Z</time>
      </trkpt>
      <trkpt lat="44.57572" lon="-1.21401">
        <ele>66</ele>
        <time>2018-09-03T18:12:12.880Z</time>
      </trkpt>
      <trkpt lat="44.57454" lon="-1.21614">
        <ele>63</ele>
        <time>2018-09-03T18:12:15.961Z</time>
      </trkpt>
      <trkpt lat="44.57454" lon="-1.21614">
        <ele>63</ele>
        <time>2018-09-03T18:12:15.961Z</time>
      </trkpt>
      <trkpt lat="44.57392" lon="-1.21726">
        <ele>58</ele>
        <time>2018-09-03T18:12:17.584Z</time>
      </trkpt>
      <trkpt lat="44.57301" lon="-1.21813">
        <ele>52</ele>
        <time>2018-09-03T18:12:19.340Z</time>
      </trkpt>
      <trkpt lat="44.57283" lon="-1.21837">
        <ele>49</ele>
        <time>2018-09-03T18:12:19.746Z</time>
      </trkpt>
      <trkpt lat="44.57248" lon="-1.21935">
        <ele>47</ele>
        <time>2018-09-03T18:12:20.993Z</time>
      </trkpt>
      <trkpt lat="44.57232" lon="-1.22006">
        <ele>49</ele>
        <time>2018-09-03T18:12:21.844Z</time>
      </trkpt>
      <trkpt lat="44.57172" lon="-1.22272">
        <ele>65</ele>
        <time>2018-09-03T18:12:25.035Z</time>
      </trkpt>
      <trkpt lat="44.57121" lon="-1.22506">
        <ele>56</ele>
        <time>2018-09-03T18:12:27.828Z</time>
      </trkpt>
      <trkpt lat="44.57112" lon="-1.22534">
        <ele>55</ele>
        <time>2018-09-03T18:12:28.173Z</time>
      </trkpt>
      <trkpt lat="44.57078" lon="-1.22593">
        <ele>48</ele>
        <time>2018-09-03T18:12:29.043Z</time>
      </trkpt>
      <trkpt lat="44.57031" lon="-1.2263">
        <ele>44</ele>
        <time>2018-09-03T18:12:29.905Z</time>
      </trkpt>
      <trkpt lat="44.5683" lon="-1.22714">
        <ele>29</ele>
        <time>2018-09-03T18:12:33.268Z</time>
      </trkpt>
      <trkpt lat="44.56762" lon="-1.22796">
        <ele>22</ele>
        <time>2018-09-03T18:12:34.707Z</time>
      </trkpt>
      <trkpt lat="44.56762" lon="-1.22796">
        <ele>22</ele>
        <time>2018-09-03T18:12:34.707Z</time>
      </trkpt>
      <trkpt lat="44.56584" lon="-1.23034">
        <ele>18</ele>
        <time>2018-09-03T18:12:38.640Z</time>
      </trkpt>
      <trkpt lat="44.56584" lon="-1.23034">
        <ele>18</ele>
        <time>2018-09-03T18:12:38.640Z</time>
      </trkpt>
      <trkpt lat="44.56461" lon="-1.23211">
        <ele>20</ele>
        <time>2018-09-03T18:12:41.463Z</time>
      </trkpt>
      <trkpt lat="44.56189" lon="-1.23353">
        <ele>28</ele>
        <time>2018-09-03T18:12:46.126Z</time>
      </trkpt>
      <trkpt lat="44.56124" lon="-1.23397">
        <ele>28</ele>
        <time>2018-09-03T18:12:47.274Z</time>
      </trkpt>
      <trkpt lat="44.56086" lon="-1.23434">
        <ele>26</ele>
        <time>2018-09-03T18:12:48.020Z</time>
      </trkpt>
      <trkpt lat="44.55996" lon="-1.23519">
        <ele>31</ele>
        <time>2018-09-03T18:12:49.763Z</time>
      </trkpt>
      <trkpt lat="44.55941" lon="-1.2356">
        <ele>34</ele>
        <time>2018-09-03T18:12:50.759Z</time>
      </trkpt>
      <trkpt lat="44.55899" lon="-1.23578">
        <ele>35</ele>
        <time>2018-09-03T18:12:51.468Z</time>
      </trkpt>
      <trkpt lat="44.55826" lon="-1.2358">
        <ele>35</ele>
        <time>2018-09-03T18:12:52.629Z</time>
      </trkpt>
      <trkpt lat="44.55764" lon="-1.23562">
        <ele>36</ele>
        <time>2018-09-03T18:12:53.647Z</time>
      </trkpt>
      <trkpt lat="44.55723" lon="-1.23535">
        <ele>36</ele>
        <time>2018-09-03T18:12:54.374Z</time>
      </trkpt>
      <trkpt lat="44.55589" lon="-1.23519">
        <ele>34</ele>
        <time>2018-09-03T18:12:56.540Z</time>
      </trkpt>
      <trkpt lat="44.55589" lon="-1.23519">
        <ele>34</ele>
        <time>2018-09-03T18:12:56.540Z</time>
      </trkpt>
      <trkpt lat="44.55557" lon="-1.23533">
        <ele>33</ele>
        <time>2018-09-03T18:12:57.074Z</time>
      </trkpt>
      <trkpt lat="44.5551" lon="-1.2359">
        <ele>34</ele>
        <time>2018-09-03T18:12:58.067Z</time>
      </trkpt>
      <trkpt lat="44.55451" lon="-1.2363">
        <ele>35</ele>
        <time>2018-09-03T18:12:59.108Z</time>
      </trkpt>
      <trkpt lat="44.55209" lon="-1.23758">
        <ele>20</ele>
        <time>2018-09-03T18:13:03.264Z</time>
      </trkpt>
      <trkpt lat="44.55184" lon="-1.23772">
        <ele>18</ele>
        <time>2018-09-03T18:13:03.691Z</time>
      </trkpt>
      <trkpt lat="44.55187" lon="-1.23783">
        <ele>19</ele>
        <time>2018-09-03T18:13:03.824Z</time>
      </trkpt>
      <trkpt lat="44.55034" lon="-1.23864">
        <ele>18</ele>
        <time>2018-09-03T18:13:06.454Z</time>
      </trkpt>
      <trkpt lat="44.54885" lon="-1.23944">
        <ele>23</ele>
        <time>2018-09-03T18:13:09.011Z</time>
      </trkpt>
      <trkpt lat="44.54811" lon="-1.23982">
        <ele>22</ele>
        <time>2018-09-03T18:13:10.277Z</time>
      </trkpt>
      <trkpt lat="44.54663" lon="-1.24057">
        <ele>19</ele>
        <time>2018-09-03T18:13:12.799Z</time>
      </trkpt>
      <trkpt lat="44.54582" lon="-1.24055">
        <ele>19</ele>
        <time>2018-09-03T18:13:14.098Z</time>
      </trkpt>
      <trkpt lat="44.54149" lon="-1.23903">
        <ele>20</ele>
        <time>2018-09-03T18:13:21.253Z</time>
      </trkpt>
      <trkpt lat="44.54149" lon="-1.23903">
        <ele>20</ele>
        <time>2018-09-03T18:13:21.253Z</time>
      </trkpt>
      <trkpt lat="44.54057" lon="-1.23868">
        <ele>19</ele>
        <time>2018-09-03T18:13:22.777Z</time>
      </trkpt>
      <trkpt lat="44.53846" lon="-1.23789">
        <ele>18</ele>
        <time>2018-09-03T18:13:26.283Z</time>
      </trkpt>
      <trkpt lat="44.5383" lon="-1.23784">
        <ele>19</ele>
        <time>2018-09-03T18:13:26.540Z</time>
      </trkpt>
      <trkpt lat="44.53695" lon="-1.23737">
        <ele>19</ele>
        <time>2018-09-03T18:13:28.764Z</time>
      </trkpt>
      <trkpt lat="44.53628" lon="-1.23732">
        <ele>19</ele>
        <time>2018-09-03T18:13:29.840Z</time>
      </trkpt>
      <trkpt lat="44.53299" lon="-1.23763">
        <ele>19</ele>
        <time>2018-09-03T18:13:35.132Z</time>
      </trkpt>
      <trkpt lat="44.53299" lon="-1.23763">
        <ele>19</ele>
        <time>2018-09-03T18:13:35.132Z</time>
      </trkpt>
      <trkpt lat="44.53095" lon="-1.2378">
        <ele>22</ele>
        <time>2018-09-03T18:13:38.405Z</time>
      </trkpt>
      <trkpt lat="44.52865" lon="-1.23718">
        <ele>22</ele>
        <time>2018-09-03T18:13:42.161Z</time>
      </trkpt>
      <trkpt lat="44.52533" lon="-1.23614">
        <ele>18</ele>
        <time>2018-09-03T18:13:47.616Z</time>
      </trkpt>
      <trkpt lat="44.52337" lon="-1.23552">
        <ele>19</ele>
        <time>2018-09-03T18:13:50.842Z</time>
      </trkpt>
      <trkpt lat="44.5231" lon="-1.23551">
        <ele>19</ele>
        <time>2018-09-03T18:13:51.263Z</time>
      </trkpt>
      <trkpt lat="44.52007" lon="-1.23564">
        <ele>21</ele>
        <time>2018-09-03T18:13:56.133Z</time>
      </trkpt>
      <trkpt lat="44.52007" lon="-1.23564">
        <ele>21</ele>
        <time>2018-09-03T18:13:56.133Z</time>
      </trkpt>
      <trkpt lat="44.51799" lon="-1.23575">
        <ele>17</ele>
        <time>2018-09-03T18:13:59.464Z</time>
      </trkpt>
      <trkpt lat="44.51799" lon="-1.23575">
        <ele>17</ele>
        <time>2018-09-03T18:13:59.464Z</time>
      </trkpt>
      <trkpt lat="44.51728" lon="-1.23579">
        <ele>14</ele>
        <time>2018-09-03T18:14:00.600Z</time>
      </trkpt>
      <trkpt lat="44.5171" lon="-1.23514">
        <ele>15</ele>
        <time>2018-09-03T18:14:01.398Z</time>
      </trkpt>
      <trkpt lat="44.51697" lon="-1.23497">
        <ele>16</ele>
        <time>2018-09-03T18:14:01.679Z</time>
      </trkpt>
      <trkpt lat="44.51638" lon="-1.23486">
        <ele>21</ele>
        <time>2018-09-03T18:14:02.633Z</time>
      </trkpt>
      <trkpt lat="44.51553" lon="-1.23511">
        <ele>25</ele>
        <time>2018-09-03T18:14:04.022Z</time>
      </trkpt>
      <trkpt lat="44.515" lon="-1.23512">
        <ele>26</ele>
        <time>2018-09-03T18:14:04.873Z</time>
      </trkpt>
      <trkpt lat="44.51464" lon="-1.23499">
        <ele>24</ele>
        <time>2018-09-03T18:14:05.476Z</time>
      </trkpt>
      <trkpt lat="44.51433" lon="-1.23477">
        <ele>23</ele>
        <time>2018-09-03T18:14:06.030Z</time>
      </trkpt>
      <trkpt lat="44.51391" lon="-1.23418">
        <ele>19</ele>
        <time>2018-09-03T18:14:06.977Z</time>
      </trkpt>
      <trkpt lat="44.51343" lon="-1.23375">
        <ele>18</ele>
        <time>2018-09-03T18:14:07.897Z</time>
      </trkpt>
      <trkpt lat="44.51307" lon="-1.2337">
        <ele>15</ele>
        <time>2018-09-03T18:14:08.475Z</time>
      </trkpt>
      <trkpt lat="44.51273" lon="-1.23378">
        <ele>15</ele>
        <time>2018-09-03T18:14:09.024Z</time>
      </trkpt>
      <trkpt lat="44.51227" lon="-1.23405">
        <ele>16</ele>
        <time>2018-09-03T18:14:09.835Z</time>
      </trkpt>
      <trkpt lat="44.51169" lon="-1.23406">
        <ele>17</ele>
        <time>2018-09-03T18:14:10.764Z</time>
      </trkpt>
      <trkpt lat="44.50985" lon="-1.23327">
        <ele>16</ele>
        <time>2018-09-03T18:14:13.850Z</time>
      </trkpt>
      <trkpt lat="44.50937" lon="-1.23327">
        <ele>16</ele>
        <time>2018-09-03T18:14:14.615Z</time>
      </trkpt>
      <trkpt lat="44.50759" lon="-1.23355">
        <ele>15</ele>
        <time>2018-09-03T18:14:17.488Z</time>
      </trkpt>
      <trkpt lat="44.50672" lon="-1.2337">
        <ele>15</ele>
        <time>2018-09-03T18:14:18.900Z</time>
      </trkpt>
      <trkpt lat="44.50651" lon="-1.23374">
        <ele>17</ele>
        <time>2018-09-03T18:14:19.238Z</time>
      </trkpt>
      <trkpt lat="44.50539" lon="-1.2343">
        <ele>15</ele>
        <time>2018-09-03T18:14:21.139Z</time>
      </trkpt>
      <trkpt lat="44.50492" lon="-1.23433">
        <ele>17</ele>
        <time>2018-09-03T18:14:21.888Z</time>
      </trkpt>
      <trkpt lat="44.50405" lon="-1.2343">
        <ele>17</ele>
        <time>2018-09-03T18:14:23.282Z</time>
      </trkpt>
      <trkpt lat="44.50306" lon="-1.23403">
        <ele>17</ele>
        <time>2018-09-03T18:14:24.912Z</time>
      </trkpt>
      <trkpt lat="44.50202" lon="-1.23348">
        <ele>15</ele>
        <time>2018-09-03T18:14:26.688Z</time>
      </trkpt>
      <trkpt lat="44.50188" lon="-1.23346">
        <ele>15</ele>
        <time>2018-09-03T18:14:26.921Z</time>
      </trkpt>
      <trkpt lat="44.50058" lon="-1.23338">
        <ele>15</ele>
        <time>2018-09-03T18:14:29.004Z</time>
      </trkpt>
      <trkpt lat="44.49932" lon="-1.23351">
        <ele>16</ele>
        <time>2018-09-03T18:14:31.022Z</time>
      </trkpt>
      <trkpt lat="44.49875" lon="-1.23289">
        <ele>18</ele>
        <time>2018-09-03T18:14:32.181Z</time>
      </trkpt>
      <trkpt lat="44.49829" lon="-1.23249">
        <ele>18</ele>
        <time>2018-09-03T18:14:33.055Z</time>
      </trkpt>
      <trkpt lat="44.49753" lon="-1.23248">
        <ele>17</ele>
        <time>2018-09-03T18:14:34.268Z</time>
      </trkpt>
      <trkpt lat="44.49661" lon="-1.2328">
        <ele>19</ele>
        <time>2018-09-03T18:14:35.784Z</time>
      </trkpt>
      <trkpt lat="44.49646" lon="-1.23276">
        <ele>20</ele>
        <time>2018-09-03T18:14:36.029Z</time>
      </trkpt>
      <trkpt lat="44.49607" lon="-1.23241">
        <ele>21</ele>
        <time>2018-09-03T18:14:36.783Z</time>
      </trkpt>
      <trkpt lat="44.49577" lon="-1.23241">
        <ele>22</ele>
        <time>2018-09-03T18:14:37.256Z</time>
      </trkpt>
      <trkpt lat="44.49489" lon="-1.23288">
        <ele>23</ele>
        <time>2018-09-03T18:14:38.772Z</time>
      </trkpt>
      <trkpt lat="44.49447" lon="-1.23354">
        <ele>21</ele>
        <time>2018-09-03T18:14:39.782Z</time>
      </trkpt>
      <trkpt lat="44.49392" lon="-1.23522">
        <ele>18</ele>
        <time>2018-09-03T18:14:41.897Z</time>
      </trkpt>
      <trkpt lat="44.49377" lon="-1.2354">
        <ele>18</ele>
        <time>2018-09-03T18:14:42.213Z</time>
      </trkpt>
      <trkpt lat="44.49359" lon="-1.2355">
        <ele>18</ele>
        <time>2018-09-03T18:14:42.518Z</time>
      </trkpt>
      <trkpt lat="44.49301" lon="-1.2355">
        <ele>19</ele>
        <time>2018-09-03T18:14:43.447Z</time>
      </trkpt>
      <trkpt lat="44.49301" lon="-1.2355">
        <ele>19</ele>
        <time>2018-09-03T18:14:43.447Z</time>
      </trkpt>
      <trkpt lat="44.48957" lon="-1.23581">
        <ele>17</ele>
        <time>2018-09-03T18:14:48.980Z</time>
      </trkpt>
      <trkpt lat="44.48826" lon="-1.23591">
        <ele>16</ele>
        <time>2018-09-03T18:14:51.090Z</time>
      </trkpt>
      <trkpt lat="44.48484" lon="-1.23611">
        <ele>17</ele>
        <time>2018-09-03T18:14:56.565Z</time>
      </trkpt>
      <trkpt lat="44.48293" lon="-1.23584">
        <ele>19</ele>
        <time>2018-09-03T18:14:59.651Z</time>
      </trkpt>
      <trkpt lat="44.48193" lon="-1.23563">
        <ele>18</ele>
        <time>2018-09-03T18:15:01.269Z</time>
      </trkpt>
      <trkpt lat="44.48156" lon="-1.23545">
        <ele>17</ele>
        <time>2018-09-03T18:15:01.898Z</time>
      </trkpt>
      <trkpt lat="44.48156" lon="-1.23545">
        <ele>17</ele>
        <time>2018-09-03T18:15:01.898Z</time>
      </trkpt>
      <trkpt lat="44.48064" lon="-1.2346">
        <ele>16</ele>
        <time>2018-09-03T18:15:03.667Z</time>
      </trkpt>
      <trkpt lat="44.47965" lon="-1.23436">
        <ele>15</ele>
        <time>2018-09-03T18:15:05.272Z</time>
      </trkpt>
      <trkpt lat="44.47811" lon="-1.23427">
        <ele>16</ele>
        <time>2018-09-03T18:15:07.751Z</time>
      </trkpt>
      <trkpt lat="44.47792" lon="-1.23433">
        <ele>17</ele>
        <time>2018-09-03T18:15:08.061Z</time>
      </trkpt>
      <trkpt lat="44.47757" lon="-1.23465">
        <ele>17</ele>
        <time>2018-09-03T18:15:08.727Z</time>
      </trkpt>
      <trkpt lat="44.47757" lon="-1.23465">
        <ele>17</ele>
        <time>2018-09-03T18:15:08.727Z</time>
      </trkpt>
      <trkpt lat="44.47734" lon="-1.23476">
        <ele>17</ele>
        <time>2018-09-03T18:15:09.117Z</time>
      </trkpt>
      <trkpt lat="44.47569" lon="-1.23457">
        <ele>18</ele>
        <time>2018-09-03T18:15:11.774Z</time>
      </trkpt>
      <trkpt lat="44.47504" lon="-1.2347">
        <ele>17</ele>
        <time>2018-09-03T18:15:12.825Z</time>
      </trkpt>
      <trkpt lat="44.4735" lon="-1.235">
        <ele>19</ele>
        <time>2018-09-03T18:15:15.308Z</time>
      </trkpt>
      <trkpt lat="44.47303" lon="-1.235">
        <ele>19</ele>
        <time>2018-09-03T18:15:16.073Z</time>
      </trkpt>
      <trkpt lat="44.47186" lon="-1.2348">
        <ele>20</ele>
        <time>2018-09-03T18:15:17.954Z</time>
      </trkpt>
      <trkpt lat="44.47153" lon="-1.23511">
        <ele>19</ele>
        <time>2018-09-03T18:15:18.595Z</time>
      </trkpt>
      <trkpt lat="44.47149" lon="-1.23522">
        <ele>19</ele>
        <time>2018-09-03T18:15:18.732Z</time>
      </trkpt>
      <trkpt lat="44.47148" lon="-1.23525">
        <ele>19</ele>
        <time>2018-09-03T18:15:18.778Z</time>
      </trkpt>
      <trkpt lat="44.47129" lon="-1.23574">
        <ele>19</ele>
        <time>2018-09-03T18:15:19.407Z</time>
      </trkpt>
      <trkpt lat="44.47101" lon="-1.23576">
        <ele>19</ele>
        <time>2018-09-03T18:15:19.864Z</time>
      </trkpt>
      <trkpt lat="44.47082" lon="-1.23591">
        <ele>20</ele>
        <time>2018-09-03T18:15:20.208Z</time>
      </trkpt>
      <trkpt lat="44.46891" lon="-1.23817">
        <ele>22</ele>
        <time>2018-09-03T18:15:24.221Z</time>
      </trkpt>
      <trkpt lat="44.46854" lon="-1.23847">
        <ele>22</ele>
        <time>2018-09-03T18:15:24.910Z</time>
      </trkpt>
      <trkpt lat="44.46775" lon="-1.23879">
        <ele>21</ele>
        <time>2018-09-03T18:15:26.217Z</time>
      </trkpt>
      <trkpt lat="44.46719" lon="-1.23926">
        <ele>21</ele>
        <time>2018-09-03T18:15:27.266Z</time>
      </trkpt>
      <trkpt lat="44.46678" lon="-1.2398">
        <ele>22</ele>
        <time>2018-09-03T18:15:28.167Z</time>
      </trkpt>
      <trkpt lat="44.46642" lon="-1.23997">
        <ele>23</ele>
        <time>2018-09-03T18:15:28.784Z</time>
      </trkpt>
      <trkpt lat="44.46564" lon="-1.2406">
        <ele>25</ele>
        <time>2018-09-03T18:15:30.226Z</time>
      </trkpt>
      <trkpt lat="44.46544" lon="-1.24066">
        <ele>25</ele>
        <time>2018-09-03T18:15:30.559Z</time>
      </trkpt>
      <trkpt lat="44.46516" lon="-1.2406">
        <ele>25</ele>
        <time>2018-09-03T18:15:31.003Z</time>
      </trkpt>
      <trkpt lat="44.46516" lon="-1.2406">
        <ele>25</ele>
        <time>2018-09-03T18:15:31.003Z</time>
      </trkpt>
      <trkpt lat="44.46474" lon="-1.24053">
        <ele>25</ele>
        <time>2018-09-03T18:15:31.687Z</time>
      </trkpt>
      <trkpt lat="44.46421" lon="-1.24077">
        <ele>25</ele>
        <time>2018-09-03T18:15:32.584Z</time>
      </trkpt>
      <trkpt lat="44.464" lon="-1.24116">
        <ele>25</ele>
        <time>2018-09-03T18:15:33.129Z</time>
      </trkpt>
      <trkpt lat="44.46398" lon="-1.24193">
        <ele>23</ele>
        <time>2018-09-03T18:15:34.020Z</time>
      </trkpt>
      <trkpt lat="44.46391" lon="-1.24209">
        <ele>22</ele>
        <time>2018-09-03T18:15:34.235Z</time>
      </trkpt>
      <trkpt lat="44.46361" lon="-1.24227">
        <ele>22</ele>
        <time>2018-09-03T18:15:34.765Z</time>
      </trkpt>
      <trkpt lat="44.46305" lon="-1.24239">
        <ele>23</ele>
        <time>2018-09-03T18:15:35.662Z</time>
      </trkpt>
      <trkpt lat="44.46233" lon="-1.24255">
        <ele>23</ele>
        <time>2018-09-03T18:15:36.837Z</time>
      </trkpt>
      <trkpt lat="44.46151" lon="-1.24282">
        <ele>22</ele>
        <time>2018-09-03T18:15:38.190Z</time>
      </trkpt>
      <trkpt lat="44.45956" lon="-1.24467">
        <ele>20</ele>
        <time>2018-09-03T18:15:41.966Z</time>
      </trkpt>
      <trkpt lat="44.4592" lon="-1.24479">
        <ele>20</ele>
        <time>2018-09-03T18:15:42.551Z</time>
      </trkpt>
      <trkpt lat="44.45891" lon="-1.24478">
        <ele>19</ele>
        <time>2018-09-03T18:15:43.024Z</time>
      </trkpt>
      <trkpt lat="44.45855" lon="-1.24437">
        <ele>19</ele>
        <time>2018-09-03T18:15:43.763Z</time>
      </trkpt>
      <trkpt lat="44.45837" lon="-1.24398">
        <ele>18</ele>
        <time>2018-09-03T18:15:44.303Z</time>
      </trkpt>
      <trkpt lat="44.45794" lon="-1.24265">
        <ele>17</ele>
        <time>2018-09-03T18:15:45.964Z</time>
      </trkpt>
      <trkpt lat="44.45708" lon="-1.24078">
        <ele>18</ele>
        <time>2018-09-03T18:15:48.510Z</time>
      </trkpt>
      <trkpt lat="44.45705" lon="-1.24069">
        <ele>18</ele>
        <time>2018-09-03T18:15:48.626Z</time>
      </trkpt>
      <trkpt lat="44.45697" lon="-1.24074">
        <ele>18</ele>
        <time>2018-09-03T18:15:48.774Z</time>
      </trkpt>
      <trkpt lat="44.45678" lon="-1.24062">
        <ele>18</ele>
        <time>2018-09-03T18:15:49.104Z</time>
      </trkpt>
      <trkpt lat="44.45661" lon="-1.2407">
        <ele>17</ele>
        <time>2018-09-03T18:15:49.386Z</time>
      </trkpt>
      <trkpt lat="44.45654" lon="-1.24075">
        <ele>17</ele>
        <time>2018-09-03T18:15:49.511Z</time>
      </trkpt>
      <trkpt lat="44.45647" lon="-1.24103">
        <ele>17</ele>
        <time>2018-09-03T18:15:49.855Z</time>
      </trkpt>
      <trkpt lat="44.45562" lon="-1.24145">
        <ele>15</ele>
        <time>2018-09-03T18:15:51.296Z</time>
      </trkpt>
      <trkpt lat="44.45562" lon="-1.24145">
        <ele>15</ele>
        <time>2018-09-03T18:15:51.296Z</time>
      </trkpt>
      <trkpt lat="44.45362" lon="-1.24245">
        <ele>18</ele>
        <time>2018-09-03T18:15:54.701Z</time>
      </trkpt>
      <trkpt lat="44.45347" lon="-1.24242">
        <ele>18</ele>
        <time>2018-09-03T18:15:54.945Z</time>
      </trkpt>
      <trkpt lat="44.4533" lon="-1.24217">
        <ele>19</ele>
        <time>2018-09-03T18:15:55.341Z</time>
      </trkpt>
      <trkpt lat="44.45221" lon="-1.23936">
        <ele>20</ele>
        <time>2018-09-03T18:15:59.001Z</time>
      </trkpt>
      <trkpt lat="44.452" lon="-1.23925">
        <ele>19</ele>
        <time>2018-09-03T18:15:59.352Z</time>
      </trkpt>
      <trkpt lat="44.45193" lon="-1.23937">
        <ele>19</ele>
        <time>2018-09-03T18:15:59.533Z</time>
      </trkpt>
      <trkpt lat="44.45172" lon="-1.24033">
        <ele>20</ele>
        <time>2018-09-03T18:16:00.682Z</time>
      </trkpt>
      <trkpt lat="44.45133" lon="-1.24187">
        <ele>19</ele>
        <time>2018-09-03T18:16:02.550Z</time>
      </trkpt>
      <trkpt lat="44.4507" lon="-1.24308">
        <ele>22</ele>
        <time>2018-09-03T18:16:04.269Z</time>
      </trkpt>
      <trkpt lat="44.45034" lon="-1.2435">
        <ele>22</ele>
        <time>2018-09-03T18:16:05.022Z</time>
      </trkpt>
      <trkpt lat="44.44954" lon="-1.24422">
        <ele>19</ele>
        <time>2018-09-03T18:16:06.541Z</time>
      </trkpt>
      <trkpt lat="44.44845" lon="-1.24484">
        <ele>16</ele>
        <time>2018-09-03T18:16:08.426Z</time>
      </trkpt>
      <trkpt lat="44.44837" lon="-1.24468">
        <ele>16</ele>
        <time>2018-09-03T18:16:08.651Z</time>
      </trkpt>
      <trkpt lat="44.44806" lon="-1.24444">
        <ele>15</ele>
        <time>2018-09-03T18:16:09.217Z</time>
      </trkpt>
      <trkpt lat="44.44806" lon="-1.24444">
        <ele>15</ele>
        <time>2018-09-03T18:16:09.217Z</time>
      </trkpt>
      <trkpt lat="44.44707" lon="-1.24361">
        <ele>17</ele>
        <time>2018-09-03T18:16:11.068Z</time>
      </trkpt>
      <trkpt lat="44.44686" lon="-1.2433">
        <ele>18</ele>
        <time>2018-09-03T18:16:11.557Z</time>
      </trkpt>
      <trkpt lat="44.44686" lon="-1.2433">
        <ele>18</ele>
        <time>2018-09-03T18:16:11.557Z</time>
      </trkpt>
      <trkpt lat="44.4466" lon="-1.24331">
        <ele>19</ele>
        <time>2018-09-03T18:16:11.979Z</time>
      </trkpt>
      <trkpt lat="44.44597" lon="-1.2429">
        <ele>18</ele>
        <time>2018-09-03T18:16:13.091Z</time>
      </trkpt>
      <trkpt lat="44.44598" lon="-1.24257">
        <ele>18</ele>
        <time>2018-09-03T18:16:13.466Z</time>
      </trkpt>
      <trkpt lat="44.44593" lon="-1.24247">
        <ele>18</ele>
        <time>2018-09-03T18:16:13.601Z</time>
      </trkpt>
      <trkpt lat="44.4454" lon="-1.24212">
        <ele>18</ele>
        <time>2018-09-03T18:16:14.544Z</time>
      </trkpt>
      <trkpt lat="44.44534" lon="-1.24216">
        <ele>18</ele>
        <time>2018-09-03T18:16:14.648Z</time>
      </trkpt>
      <trkpt lat="44.44538" lon="-1.24256">
        <ele>18</ele>
        <time>2018-09-03T18:16:15.106Z</time>
      </trkpt>
      <trkpt lat="44.44526" lon="-1.24271">
        <ele>18</ele>
        <time>2018-09-03T18:16:15.372Z</time>
      </trkpt>
      <trkpt lat="44.44427" lon="-1.24283">
        <ele>19</ele>
        <time>2018-09-03T18:16:16.961Z</time>
      </trkpt>
      <trkpt lat="44.44399" lon="-1.24275">
        <ele>19</ele>
        <time>2018-09-03T18:16:17.417Z</time>
      </trkpt>
      <trkpt lat="44.44399" lon="-1.24275">
        <ele>19</ele>
        <time>2018-09-03T18:16:17.417Z</time>
      </trkpt>
      <trkpt lat="44.44382" lon="-1.24288">
        <ele>19</ele>
        <time>2018-09-03T18:16:17.722Z</time>
      </trkpt>
      <trkpt lat="44.44299" lon="-1.243">
        <ele>18</ele>
        <time>2018-09-03T18:16:19.070Z</time>
      </trkpt>
      <trkpt lat="44.44232" lon="-1.24286">
        <ele>17</ele>
        <time>2018-09-03T18:16:20.148Z</time>
      </trkpt>
      <trkpt lat="44.44213" lon="-1.24271">
        <ele>18</ele>
        <time>2018-09-03T18:16:20.505Z</time>
      </trkpt>
      <trkpt lat="44.44198" lon="-1.24256">
        <ele>18</ele>
        <time>2018-09-03T18:16:20.801Z</time>
      </trkpt>
      <trkpt lat="44.44169" lon="-1.24224">
        <ele>18</ele>
        <time>2018-09-03T18:16:21.386Z</time>
      </trkpt>
      <trkpt lat="44.44169" lon="-1.24224">
        <ele>18</ele>
        <time>2018-09-03T18:16:21.386Z</time>
      </trkpt>
      <trkpt lat="44.44151" lon="-1.24203">
        <ele>23</ele>
        <time>2018-09-03T18:16:21.761Z</time>
      </trkpt>
      <trkpt lat="44.44096" lon="-1.24079">
        <ele>25</ele>
        <time>2018-09-03T18:16:23.434Z</time>
      </trkpt>
      <trkpt lat="44.44089" lon="-1.24065">
        <ele>25</ele>
        <time>2018-09-03T18:16:23.634Z</time>
      </trkpt>
      <trkpt lat="44.44089" lon="-1.24065">
        <ele>25</ele>
        <time>2018-09-03T18:16:23.634Z</time>
      </trkpt>
      <trkpt lat="44.44044" lon="-1.23982">
        <ele>23</ele>
        <time>2018-09-03T18:16:24.819Z</time>
      </trkpt>
      <trkpt lat="44.44021" lon="-1.23916">
        <ele>21</ele>
        <time>2018-09-03T18:16:25.660Z</time>
      </trkpt>
      <trkpt lat="44.43982" lon="-1.23845">
        <ele>20</ele>
        <time>2018-09-03T18:16:26.690Z</time>
      </trkpt>
      <trkpt lat="44.43982" lon="-1.23845">
        <ele>20</ele>
        <time>2018-09-03T18:16:26.690Z</time>
      </trkpt>
      <trkpt lat="44.43963" lon="-1.23808">
        <ele>21</ele>
        <time>2018-09-03T18:16:27.205Z</time>
      </trkpt>
      <trkpt lat="44.43958" lon="-1.23701">
        <ele>22</ele>
        <time>2018-09-03T18:16:28.430Z</time>
      </trkpt>
      <trkpt lat="44.43952" lon="-1.23684">
        <ele>22</ele>
        <time>2018-09-03T18:16:28.654Z</time>
      </trkpt>
      <trkpt lat="44.43825" lon="-1.23489">
        <ele>18</ele>
        <time>2018-09-03T18:16:31.664Z</time>
      </trkpt>
      <trkpt lat="44.43815" lon="-1.23461">
        <ele>19</ele>
        <time>2018-09-03T18:16:32.028Z</time>
      </trkpt>
      <trkpt lat="44.438" lon="-1.23374">
        <ele>20</ele>
        <time>2018-09-03T18:16:33.054Z</time>
      </trkpt>
      <trkpt lat="44.43759" lon="-1.23287">
        <ele>24</ele>
        <time>2018-09-03T18:16:34.245Z</time>
      </trkpt>
      <trkpt lat="44.43759" lon="-1.23287">
        <ele>24</ele>
        <time>2018-09-03T18:16:34.245Z</time>
      </trkpt>
      <trkpt lat="44.43756" lon="-1.23262">
        <ele>26</ele>
        <time>2018-09-03T18:16:34.538Z</time>
      </trkpt>
      <trkpt lat="44.43687" lon="-1.2329">
        <ele>21</ele>
        <time>2018-09-03T18:16:35.702Z</time>
      </trkpt>
      <trkpt lat="44.43559" lon="-1.23028">
        <ele>29</ele>
        <time>2018-09-03T18:16:39.336Z</time>
      </trkpt>
      <trkpt lat="44.43515" lon="-1.22912">
        <ele>34</ele>
        <time>2018-09-03T18:16:40.838Z</time>
      </trkpt>
      <trkpt lat="44.43469" lon="-1.22662">
        <ele>37</ele>
        <time>2018-09-03T18:16:43.788Z</time>
      </trkpt>
      <trkpt lat="44.43439" lon="-1.22595">
        <ele>38</ele>
        <time>2018-09-03T18:16:44.690Z</time>
      </trkpt>
      <trkpt lat="44.43426" lon="-1.22573">
        <ele>40</ele>
        <time>2018-09-03T18:16:45.016Z</time>
      </trkpt>
      <trkpt lat="44.43374" lon="-1.22519">
        <ele>40</ele>
        <time>2018-09-03T18:16:46.059Z</time>
      </trkpt>
      <trkpt lat="44.43353" lon="-1.22505">
        <ele>40</ele>
        <time>2018-09-03T18:16:46.428Z</time>
      </trkpt>
      <trkpt lat="44.43319" lon="-1.22483">
        <ele>44</ele>
        <time>2018-09-03T18:16:47.044Z</time>
      </trkpt>
      <trkpt lat="44.43268" lon="-1.22463">
        <ele>47</ele>
        <time>2018-09-03T18:16:47.890Z</time>
      </trkpt>
      <trkpt lat="44.43058" lon="-1.22429">
        <ele>55</ele>
        <time>2018-09-03T18:16:51.267Z</time>
      </trkpt>
      <trkpt lat="44.42975" lon="-1.22393">
        <ele>59</ele>
        <time>2018-09-03T18:16:52.662Z</time>
      </trkpt>
      <trkpt lat="44.4266" lon="-1.22164">
        <ele>62</ele>
        <time>2018-09-03T18:16:58.355Z</time>
      </trkpt>
      <trkpt lat="44.42618" lon="-1.22109">
        <ele>62</ele>
        <time>2018-09-03T18:16:59.271Z</time>
      </trkpt>
      <trkpt lat="44.42562" lon="-1.22002">
        <ele>60</ele>
        <time>2018-09-03T18:17:00.791Z</time>
      </trkpt>
      <trkpt lat="44.42523" lon="-1.21957">
        <ele>54</ele>
        <time>2018-09-03T18:17:01.607Z</time>
      </trkpt>
      <trkpt lat="44.42434" lon="-1.2191">
        <ele>52</ele>
        <time>2018-09-03T18:17:03.125Z</time>
      </trkpt>
      <trkpt lat="44.42397" lon="-1.21866">
        <ele>47</ele>
        <time>2018-09-03T18:17:03.899Z</time>
      </trkpt>
      <trkpt lat="44.42367" lon="-1.21787">
        <ele>40</ele>
        <time>2018-09-03T18:17:04.932Z</time>
      </trkpt>
      <trkpt lat="44.42349" lon="-1.21549">
        <ele>44</ele>
        <time>2018-09-03T18:17:07.668Z</time>
      </trkpt>
      <trkpt lat="44.42329" lon="-1.21456">
        <ele>53</ele>
        <time>2018-09-03T18:17:08.780Z</time>
      </trkpt>
      <trkpt lat="44.42187" lon="-1.21167">
        <ele>46</ele>
        <time>2018-09-03T18:17:12.794Z</time>
      </trkpt>
      <trkpt lat="44.42169" lon="-1.21088">
        <ele>46</ele>
        <time>2018-09-03T18:17:13.743Z</time>
      </trkpt>
      <trkpt lat="44.42168" lon="-1.21043">
        <ele>48</ele>
        <time>2018-09-03T18:17:14.259Z</time>
      </trkpt>
      <trkpt lat="44.42172" lon="-1.20998">
        <ele>47</ele>
        <time>2018-09-03T18:17:14.786Z</time>
      </trkpt>
      <trkpt lat="44.4221" lon="-1.2081">
        <ele>43</ele>
        <time>2018-09-03T18:17:17.013Z</time>
      </trkpt>
      <trkpt lat="44.42211" lon="-1.20768">
        <ele>42</ele>
        <time>2018-09-03T18:17:17.499Z</time>
      </trkpt>
      <trkpt lat="44.42201" lon="-1.20665">
        <ele>41</ele>
        <time>2018-09-03T18:17:18.690Z</time>
      </trkpt>
      <trkpt lat="44.42173" lon="-1.20537">
        <ele>42</ele>
        <time>2018-09-03T18:17:20.219Z</time>
      </trkpt>
      <trkpt lat="44.42173" lon="-1.20537">
        <ele>42</ele>
        <time>2018-09-03T18:17:20.219Z</time>
      </trkpt>
      <trkpt lat="44.42158" lon="-1.20496">
        <ele>42</ele>
        <time>2018-09-03T18:17:20.754Z</time>
      </trkpt>
      <trkpt lat="44.42054" lon="-1.203">
        <ele>50</ele>
        <time>2018-09-03T18:17:23.549Z</time>
      </trkpt>
      <trkpt lat="44.42054" lon="-1.203">
        <ele>50</ele>
        <time>2018-09-03T18:17:23.549Z</time>
      </trkpt>
      <trkpt lat="44.41974" lon="-1.2013">
        <ele>50</ele>
        <time>2018-09-03T18:17:25.880Z</time>
      </trkpt>
      <trkpt lat="44.41935" lon="-1.20012">
        <ele>45</ele>
        <time>2018-09-03T18:17:27.374Z</time>
      </trkpt>
      <trkpt lat="44.41928" lon="-1.1996">
        <ele>40</ele>
        <time>2018-09-03T18:17:27.980Z</time>
      </trkpt>
      <trkpt lat="44.41923" lon="-1.19798">
        <ele>37</ele>
        <time>2018-09-03T18:17:29.830Z</time>
      </trkpt>
      <trkpt lat="44.4189" lon="-1.19529">
        <ele>41</ele>
        <time>2018-09-03T18:17:32.958Z</time>
      </trkpt>
      <trkpt lat="44.4189" lon="-1.19529">
        <ele>41</ele>
        <time>2018-09-03T18:17:32.958Z</time>
      </trkpt>
      <trkpt lat="44.41877" lon="-1.19468">
        <ele>43</ele>
        <time>2018-09-03T18:17:33.682Z</time>
      </trkpt>
      <trkpt lat="44.41877" lon="-1.19468">
        <ele>43</ele>
        <time>2018-09-03T18:17:33.682Z</time>
      </trkpt>
      <trkpt lat="44.41822" lon="-1.19255">
        <ele>47</ele>
        <time>2018-09-03T18:17:36.279Z</time>
      </trkpt>
      <trkpt lat="44.41814" lon="-1.19106">
        <ele>47</ele>
        <time>2018-09-03T18:17:37.986Z</time>
      </trkpt>
      <trkpt lat="44.41782" lon="-1.1899">
        <ele>40</ele>
        <time>2018-09-03T18:17:39.412Z</time>
      </trkpt>
      <trkpt lat="44.41773" lon="-1.18952">
        <ele>39</ele>
        <time>2018-09-03T18:17:39.872Z</time>
      </trkpt>
      <trkpt lat="44.41747" lon="-1.18893">
        <ele>41</ele>
        <time>2018-09-03T18:17:40.663Z</time>
      </trkpt>
      <trkpt lat="44.41705" lon="-1.1884">
        <ele>42</ele>
        <time>2018-09-03T18:17:41.568Z</time>
      </trkpt>
      <trkpt lat="44.41667" lon="-1.18761">
        <ele>35</ele>
        <time>2018-09-03T18:17:42.658Z</time>
      </trkpt>
      <trkpt lat="44.41642" lon="-1.186">
        <ele>35</ele>
        <time>2018-09-03T18:17:44.539Z</time>
      </trkpt>
      <trkpt lat="44.41546" lon="-1.18283">
        <ele>26</ele>
        <time>2018-09-03T18:17:48.491Z</time>
      </trkpt>
      <trkpt lat="44.41511" lon="-1.18173">
        <ele>28</ele>
        <time>2018-09-03T18:17:49.863Z</time>
      </trkpt>
      <trkpt lat="44.41489" lon="-1.18129">
        <ele>31</ele>
        <time>2018-09-03T18:17:50.478Z</time>
      </trkpt>
      <trkpt lat="44.41394" lon="-1.18032">
        <ele>32</ele>
        <time>2018-09-03T18:17:52.360Z</time>
      </trkpt>
      <trkpt lat="44.41394" lon="-1.18032">
        <ele>32</ele>
        <time>2018-09-03T18:17:52.360Z</time>
      </trkpt>
      <trkpt lat="44.41283" lon="-1.17926">
        <ele>35</ele>
        <time>2018-09-03T18:17:54.520Z</time>
      </trkpt>
      <trkpt lat="44.41199" lon="-1.17778">
        <ele>29</ele>
        <time>2018-09-03T18:17:56.687Z</time>
      </trkpt>
      <trkpt lat="44.41185" lon="-1.17752">
        <ele>28</ele>
        <time>2018-09-03T18:17:57.062Z</time>
      </trkpt>
      <trkpt lat="44.41153" lon="-1.17675">
        <ele>23</ele>
        <time>2018-09-03T18:17:58.072Z</time>
      </trkpt>
      <trkpt lat="44.41139" lon="-1.17598">
        <ele>21</ele>
        <time>2018-09-03T18:17:58.987Z</time>
      </trkpt>
      <trkpt lat="44.41136" lon="-1.17455">
        <ele>20</ele>
        <time>2018-09-03T18:18:00.628Z</time>
      </trkpt>
      <trkpt lat="44.41121" lon="-1.17319">
        <ele>25</ele>
        <time>2018-09-03T18:18:02.196Z</time>
      </trkpt>
      <trkpt lat="44.41115" lon="-1.17309">
        <ele>25</ele>
        <time>2018-09-03T18:18:02.346Z</time>
      </trkpt>
      <trkpt lat="44.41009" lon="-1.17362">
        <ele>24</ele>
        <time>2018-09-03T18:18:04.144Z</time>
      </trkpt>
      <trkpt lat="44.41009" lon="-1.17362">
        <ele>24</ele>
        <time>2018-09-03T18:18:04.144Z</time>
      </trkpt>
      <trkpt lat="44.40991" lon="-1.17353">
        <ele>24</ele>
        <time>2018-09-03T18:18:04.453Z</time>
      </trkpt>
      <trkpt lat="44.40968" lon="-1.17305">
        <ele>24</ele>
        <time>2018-09-03T18:18:05.113Z</time>
      </trkpt>
      <trkpt lat="44.40933" lon="-1.17253">
        <ele>23</ele>
        <time>2018-09-03T18:18:05.936Z</time>
      </trkpt>
      <trkpt lat="44.40865" lon="-1.1719">
        <ele>23</ele>
        <time>2018-09-03T18:18:07.247Z</time>
      </trkpt>
      <trkpt lat="44.40746" lon="-1.171">
        <ele>23</ele>
        <time>2018-09-03T18:18:09.414Z</time>
      </trkpt>
      <trkpt lat="44.40713" lon="-1.17089">
        <ele>23</ele>
        <time>2018-09-03T18:18:09.954Z</time>
      </trkpt>
      <trkpt lat="44.40614" lon="-1.17088">
        <ele>24</ele>
        <time>2018-09-03T18:18:11.545Z</time>
      </trkpt>
      <trkpt lat="44.40478" lon="-1.17162">
        <ele>23</ele>
        <time>2018-09-03T18:18:13.880Z</time>
      </trkpt>
      <trkpt lat="44.40384" lon="-1.17226">
        <ele>24</ele>
        <time>2018-09-03T18:18:15.556Z</time>
      </trkpt>
      <trkpt lat="44.40336" lon="-1.17242">
        <ele>25</ele>
        <time>2018-09-03T18:18:16.342Z</time>
      </trkpt>
      <trkpt lat="44.40336" lon="-1.17242">
        <ele>25</ele>
        <time>2018-09-03T18:18:16.342Z</time>
      </trkpt>
      <trkpt lat="44.40285" lon="-1.17255">
        <ele>23</ele>
        <time>2018-09-03T18:18:17.182Z</time>
      </trkpt>
      <trkpt lat="44.40198" lon="-1.17294">
        <ele>23</ele>
        <time>2018-09-03T18:18:18.652Z</time>
      </trkpt>
      <trkpt lat="44.40112" lon="-1.17352">
        <ele>23</ele>
        <time>2018-09-03T18:18:20.175Z</time>
      </trkpt>
      <trkpt lat="44.4" lon="-1.17408">
        <ele>23</ele>
        <time>2018-09-03T18:18:22.083Z</time>
      </trkpt>
      <trkpt lat="44.4" lon="-1.17408">
        <ele>23</ele>
        <time>2018-09-03T18:18:22.083Z</time>
      </trkpt>
      <trkpt lat="44.39933" lon="-1.17424">
        <ele>23</ele>
        <time>2018-09-03T18:18:23.182Z</time>
      </trkpt>
      <trkpt lat="44.39885" lon="-1.1719">
        <ele>26</ele>
        <time>2018-09-03T18:18:25.968Z</time>
      </trkpt>
      <trkpt lat="44.39857" lon="-1.1716">
        <ele>28</ele>
        <time>2018-09-03T18:18:26.532Z</time>
      </trkpt>
      <trkpt lat="44.39811" lon="-1.17134">
        <ele>28</ele>
        <time>2018-09-03T18:18:27.331Z</time>
      </trkpt>
      <trkpt lat="44.39708" lon="-1.17118">
        <ele>27</ele>
        <time>2018-09-03T18:18:28.983Z</time>
      </trkpt>
      <trkpt lat="44.39679" lon="-1.17106">
        <ele>26</ele>
        <time>2018-09-03T18:18:29.477Z</time>
      </trkpt>
      <trkpt lat="44.39645" lon="-1.17074">
        <ele>26</ele>
        <time>2018-09-03T18:18:30.129Z</time>
      </trkpt>
      <trkpt lat="44.3963" lon="-1.17037">
        <ele>26</ele>
        <time>2018-09-03T18:18:30.617Z</time>
      </trkpt>
      <trkpt lat="44.39611" lon="-1.17005">
        <ele>28</ele>
        <time>2018-09-03T18:18:31.098Z</time>
      </trkpt>
      <trkpt lat="44.39597" lon="-1.16965">
        <ele>28</ele>
        <time>2018-09-03T18:18:31.610Z</time>
      </trkpt>
      <trkpt lat="44.3954" lon="-1.16698">
        <ele>27</ele>
        <time>2018-09-03T18:18:34.797Z</time>
      </trkpt>
      <trkpt lat="44.39513" lon="-1.16633">
        <ele>27</ele>
        <time>2018-09-03T18:18:35.656Z</time>
      </trkpt>
      <trkpt lat="44.39512" lon="-1.16631">
        <ele>27</ele>
        <time>2018-09-03T18:18:35.686Z</time>
      </trkpt>
      <trkpt lat="44.39512" lon="-1.16631">
        <ele>27</ele>
        <time>2018-09-03T18:18:35.692Z</time>
      </trkpt>
      <trkpt lat="44.39492" lon="-1.16584">
        <ele>27</ele>
        <time>2018-09-03T18:18:36.314Z</time>
      </trkpt>
      <trkpt lat="44.39468" lon="-1.16432">
        <ele>28</ele>
        <time>2018-09-03T18:18:38.102Z</time>
      </trkpt>
      <trkpt lat="44.39455" lon="-1.16429">
        <ele>28</ele>
        <time>2018-09-03T18:18:38.319Z</time>
      </trkpt>
      <trkpt lat="44.39413" lon="-1.16473">
        <ele>27</ele>
        <time>2018-09-03T18:18:39.151Z</time>
      </trkpt>
      <trkpt lat="44.39388" lon="-1.16483">
        <ele>27</ele>
        <time>2018-09-03T18:18:39.572Z</time>
      </trkpt>
      <trkpt lat="44.39368" lon="-1.16493">
        <ele>27</ele>
        <time>2018-09-03T18:18:39.917Z</time>
      </trkpt>
      <trkpt lat="44.3936" lon="-1.16508">
        <ele>27</ele>
        <time>2018-09-03T18:18:40.132Z</time>
      </trkpt>
      <trkpt lat="44.39345" lon="-1.16509">
        <ele>27</ele>
        <time>2018-09-03T18:18:40.364Z</time>
      </trkpt>
      <trkpt lat="44.39335" lon="-1.16485">
        <ele>27</ele>
        <time>2018-09-03T18:18:40.680Z</time>
      </trkpt>
      <trkpt lat="44.39316" lon="-1.1648">
        <ele>27</ele>
        <time>2018-09-03T18:18:40.994Z</time>
      </trkpt>
      <trkpt lat="44.39306" lon="-1.16469">
        <ele>27</ele>
        <time>2018-09-03T18:18:41.199Z</time>
      </trkpt>
      <trkpt lat="44.39192" lon="-1.16277">
        <ele>28</ele>
        <time>2018-09-03T18:18:44.052Z</time>
      </trkpt>
      <trkpt lat="44.39135" lon="-1.16187">
        <ele>28</ele>
        <time>2018-09-03T18:18:45.430Z</time>
      </trkpt>
      <trkpt lat="44.3912" lon="-1.16187">
        <ele>28</ele>
        <time>2018-09-03T18:18:45.671Z</time>
      </trkpt>
      <trkpt lat="44.39107" lon="-1.16193">
        <ele>28</ele>
        <time>2018-09-03T18:18:45.878Z</time>
      </trkpt>
      <trkpt lat="44.39097" lon="-1.16183">
        <ele>28</ele>
        <time>2018-09-03T18:18:46.082Z</time>
      </trkpt>
      <trkpt lat="44.39097" lon="-1.16158">
        <ele>28</ele>
        <time>2018-09-03T18:18:46.365Z</time>
      </trkpt>
      <trkpt lat="44.39096" lon="-1.1614">
        <ele>28</ele>
        <time>2018-09-03T18:18:46.575Z</time>
      </trkpt>
      <trkpt lat="44.3907" lon="-1.16076">
        <ele>27</ele>
        <time>2018-09-03T18:18:47.415Z</time>
      </trkpt>
      <trkpt lat="44.39032" lon="-1.16009">
        <ele>27</ele>
        <time>2018-09-03T18:18:48.396Z</time>
      </trkpt>
      <trkpt lat="44.38904" lon="-1.15796">
        <ele>30</ele>
        <time>2018-09-03T18:18:51.591Z</time>
      </trkpt>
      <trkpt lat="44.38904" lon="-1.15796">
        <ele>30</ele>
        <time>2018-09-03T18:18:51.591Z</time>
      </trkpt>
      <trkpt lat="44.38775" lon="-1.15582">
        <ele>30</ele>
        <time>2018-09-03T18:18:54.802Z</time>
      </trkpt>
      <trkpt lat="44.38757" lon="-1.1555">
        <ele>30</ele>
        <time>2018-09-03T18:18:55.273Z</time>
      </trkpt>
      <trkpt lat="44.38733" lon="-1.15508">
        <ele>30</ele>
        <time>2018-09-03T18:18:55.879Z</time>
      </trkpt>
      <trkpt lat="44.38733" lon="-1.15508">
        <ele>30</ele>
        <time>2018-09-03T18:18:55.879Z</time>
      </trkpt>
      <trkpt lat="44.38686" lon="-1.15424">
        <ele>30</ele>
        <time>2018-09-03T18:18:57.105Z</time>
      </trkpt>
      <trkpt lat="44.38659" lon="-1.15354">
        <ele>30</ele>
        <time>2018-09-03T18:18:58.018Z</time>
      </trkpt>
      <trkpt lat="44.38596" lon="-1.15274">
        <ele>29</ele>
        <time>2018-09-03T18:18:59.381Z</time>
      </trkpt>
      <trkpt lat="44.38566" lon="-1.15229">
        <ele>28</ele>
        <time>2018-09-03T18:19:00.081Z</time>
      </trkpt>
      <trkpt lat="44.38554" lon="-1.15238">
        <ele>28</ele>
        <time>2018-09-03T18:19:00.305Z</time>
      </trkpt>
      <trkpt lat="44.38548" lon="-1.15232">
        <ele>28</ele>
        <time>2018-09-03T18:19:00.425Z</time>
      </trkpt>
      <trkpt lat="44.38399" lon="-1.14957">
        <ele>28</ele>
        <time>2018-09-03T18:19:04.377Z</time>
      </trkpt>
      <trkpt lat="44.38355" lon="-1.14909">
        <ele>28</ele>
        <time>2018-09-03T18:19:05.269Z</time>
      </trkpt>
      <trkpt lat="44.38349" lon="-1.14896">
        <ele>28</ele>
        <time>2018-09-03T18:19:05.444Z</time>
      </trkpt>
      <trkpt lat="44.38351" lon="-1.14848">
        <ele>28</ele>
        <time>2018-09-03T18:19:05.997Z</time>
      </trkpt>
      <trkpt lat="44.38343" lon="-1.14814">
        <ele>29</ele>
        <time>2018-09-03T18:19:06.408Z</time>
      </trkpt>
      <trkpt lat="44.37973" lon="-1.13981">
        <ele>33</ele>
        <time>2018-09-03T18:19:17.643Z</time>
      </trkpt>
      <trkpt lat="44.37973" lon="-1.13981">
        <ele>33</ele>
        <time>2018-09-03T18:19:17.643Z</time>
      </trkpt>
      <trkpt lat="44.37712" lon="-1.13398">
        <ele>32</ele>
        <time>2018-09-03T18:19:25.518Z</time>
      </trkpt>
      <trkpt lat="44.37685" lon="-1.13385">
        <ele>32</ele>
        <time>2018-09-03T18:19:25.977Z</time>
      </trkpt>
      <trkpt lat="44.3768" lon="-1.13379">
        <ele>32</ele>
        <time>2018-09-03T18:19:26.083Z</time>
      </trkpt>
      <trkpt lat="44.37671" lon="-1.13366">
        <ele>32</ele>
        <time>2018-09-03T18:19:26.295Z</time>
      </trkpt>
      <trkpt lat="44.37668" lon="-1.13348">
        <ele>32</ele>
        <time>2018-09-03T18:19:26.510Z</time>
      </trkpt>
      <trkpt lat="44.37667" lon="-1.13337">
        <ele>31</ele>
        <time>2018-09-03T18:19:26.633Z</time>
      </trkpt>
      <trkpt lat="44.37667" lon="-1.13337">
        <ele>31</ele>
        <time>2018-09-03T18:19:26.633Z</time>
      </trkpt>
      <trkpt lat="44.37672" lon="-1.13311">
        <ele>32</ele>
        <time>2018-09-03T18:19:26.944Z</time>
      </trkpt>
      <trkpt lat="44.37654" lon="-1.13262">
        <ele>32</ele>
        <time>2018-09-03T18:19:27.575Z</time>
      </trkpt>
      <trkpt lat="44.37131" lon="-1.12077">
        <ele>32</ele>
        <time>2018-09-03T18:19:43.524Z</time>
      </trkpt>
      <trkpt lat="44.37131" lon="-1.12077">
        <ele>32</ele>
        <time>2018-09-03T18:19:43.524Z</time>
      </trkpt>
      <trkpt lat="44.37068" lon="-1.1192">
        <ele>33</ele>
        <time>2018-09-03T18:19:45.587Z</time>
      </trkpt>
      <trkpt lat="44.37014" lon="-1.11762">
        <ele>33</ele>
        <time>2018-09-03T18:19:47.602Z</time>
      </trkpt>
      <trkpt lat="44.36895" lon="-1.11342">
        <ele>32</ele>
        <time>2018-09-03T18:19:52.771Z</time>
      </trkpt>
      <trkpt lat="44.3685" lon="-1.11215">
        <ele>37</ele>
        <time>2018-09-03T18:19:54.403Z</time>
      </trkpt>
      <trkpt lat="44.3674" lon="-1.10947">
        <ele>36</ele>
        <time>2018-09-03T18:19:57.936Z</time>
      </trkpt>
      <trkpt lat="44.3674" lon="-1.10947">
        <ele>36</ele>
        <time>2018-09-03T18:19:57.936Z</time>
      </trkpt>
      <trkpt lat="44.36552" lon="-1.10495">
        <ele>38</ele>
        <time>2018-09-03T18:20:03.934Z</time>
      </trkpt>
      <trkpt lat="44.36466" lon="-1.10293">
        <ele>34</ele>
        <time>2018-09-03T18:20:06.629Z</time>
      </trkpt>
      <trkpt lat="44.3628" lon="-1.09845">
        <ele>41</ele>
        <time>2018-09-03T18:20:12.568Z</time>
      </trkpt>
      <trkpt lat="44.3628" lon="-1.09845">
        <ele>41</ele>
        <time>2018-09-03T18:20:12.568Z</time>
      </trkpt>
      <trkpt lat="44.3597" lon="-1.09098">
        <ele>34</ele>
        <time>2018-09-03T18:20:22.465Z</time>
      </trkpt>
      <trkpt lat="44.35919" lon="-1.09018">
        <ele>36</ele>
        <time>2018-09-03T18:20:23.688Z</time>
      </trkpt>
      <trkpt lat="44.35901" lon="-1.09008">
        <ele>37</ele>
        <time>2018-09-03T18:20:24.011Z</time>
      </trkpt>
      <trkpt lat="44.35897" lon="-1.08986">
        <ele>37</ele>
        <time>2018-09-03T18:20:24.268Z</time>
      </trkpt>
      <trkpt lat="44.35896" lon="-1.08971">
        <ele>37</ele>
        <time>2018-09-03T18:20:24.441Z</time>
      </trkpt>
      <trkpt lat="44.35895" lon="-1.08956">
        <ele>37</ele>
        <time>2018-09-03T18:20:24.614Z</time>
      </trkpt>
      <trkpt lat="44.35895" lon="-1.08956">
        <ele>37</ele>
        <time>2018-09-03T18:20:24.614Z</time>
      </trkpt>
      <trkpt lat="44.35893" lon="-1.08948">
        <ele>37</ele>
        <time>2018-09-03T18:20:24.712Z</time>
      </trkpt>
      <trkpt lat="44.35854" lon="-1.08944">
        <ele>38</ele>
        <time>2018-09-03T18:20:25.333Z</time>
      </trkpt>
      <trkpt lat="44.35021" lon="-1.08303">
        <ele>30</ele>
        <time>2018-09-03T18:20:40.584Z</time>
      </trkpt>
      <trkpt lat="44.35021" lon="-1.08303">
        <ele>30</ele>
        <time>2018-09-03T18:20:40.584Z</time>
      </trkpt>
      <trkpt lat="44.34977" lon="-1.08259">
        <ele>29</ele>
        <time>2018-09-03T18:20:41.451Z</time>
      </trkpt>
      <trkpt lat="44.34919" lon="-1.08175">
        <ele>29</ele>
        <time>2018-09-03T18:20:42.785Z</time>
      </trkpt>
      <trkpt lat="44.34915" lon="-1.0817">
        <ele>29</ele>
        <time>2018-09-03T18:20:42.873Z</time>
      </trkpt>
      <trkpt lat="44.34871" lon="-1.08072">
        <ele>30</ele>
        <time>2018-09-03T18:20:44.206Z</time>
      </trkpt>
      <trkpt lat="44.34811" lon="-1.07885">
        <ele>30</ele>
        <time>2018-09-03T18:20:46.553Z</time>
      </trkpt>
      <trkpt lat="44.3476" lon="-1.07713">
        <ele>31</ele>
        <time>2018-09-03T18:20:48.693Z</time>
      </trkpt>
      <trkpt lat="44.34742" lon="-1.07658">
        <ele>30</ele>
        <time>2018-09-03T18:20:49.382Z</time>
      </trkpt>
      <trkpt lat="44.34732" lon="-1.07651">
        <ele>30</ele>
        <time>2018-09-03T18:20:49.556Z</time>
      </trkpt>
      <trkpt lat="44.34678" lon="-1.0748">
        <ele>31</ele>
        <time>2018-09-03T18:20:51.696Z</time>
      </trkpt>
      <trkpt lat="44.34651" lon="-1.0737">
        <ele>30</ele>
        <time>2018-09-03T18:20:53.031Z</time>
      </trkpt>
      <trkpt lat="44.34644" lon="-1.07375">
        <ele>30</ele>
        <time>2018-09-03T18:20:53.153Z</time>
      </trkpt>
      <trkpt lat="44.34636" lon="-1.07416">
        <ele>30</ele>
        <time>2018-09-03T18:20:53.636Z</time>
      </trkpt>
      <trkpt lat="44.34607" lon="-1.07494">
        <ele>31</ele>
        <time>2018-09-03T18:20:54.651Z</time>
      </trkpt>
      <trkpt lat="44.3459" lon="-1.07504">
        <ele>32</ele>
        <time>2018-09-03T18:20:54.950Z</time>
      </trkpt>
      <trkpt lat="44.3455" lon="-1.07495">
        <ele>31</ele>
        <time>2018-09-03T18:20:55.595Z</time>
      </trkpt>
      <trkpt lat="44.34554" lon="-1.07407">
        <ele>29</ele>
        <time>2018-09-03T18:20:56.606Z</time>
      </trkpt>
      <trkpt lat="44.34549" lon="-1.07396">
        <ele>30</ele>
        <time>2018-09-03T18:20:56.751Z</time>
      </trkpt>
      <trkpt lat="44.34524" lon="-1.07383">
        <ele>30</ele>
        <time>2018-09-03T18:20:57.181Z</time>
      </trkpt>
      <trkpt lat="44.34492" lon="-1.07449">
        <ele>30</ele>
        <time>2018-09-03T18:20:58.087Z</time>
      </trkpt>
      <trkpt lat="44.34458" lon="-1.07483">
        <ele>30</ele>
        <time>2018-09-03T18:20:58.771Z</time>
      </trkpt>
      <trkpt lat="44.34441" lon="-1.0748">
        <ele>30</ele>
        <time>2018-09-03T18:20:59.039Z</time>
      </trkpt>
      <trkpt lat="44.34416" lon="-1.07454">
        <ele>29</ele>
        <time>2018-09-03T18:20:59.547Z</time>
      </trkpt>
      <trkpt lat="44.34389" lon="-1.07389">
        <ele>28</ele>
        <time>2018-09-03T18:21:00.406Z</time>
      </trkpt>
      <trkpt lat="44.34308" lon="-1.07409">
        <ele>27</ele>
        <time>2018-09-03T18:21:01.725Z</time>
      </trkpt>
      <trkpt lat="44.34226" lon="-1.07461">
        <ele>27</ele>
        <time>2018-09-03T18:21:03.159Z</time>
      </trkpt>
      <trkpt lat="44.34176" lon="-1.07516">
        <ele>28</ele>
        <time>2018-09-03T18:21:04.183Z</time>
      </trkpt>
      <trkpt lat="44.34075" lon="-1.07689">
        <ele>24</ele>
        <time>2018-09-03T18:21:06.751Z</time>
      </trkpt>
      <trkpt lat="44.33981" lon="-1.07807">
        <ele>26</ele>
        <time>2018-09-03T18:21:08.771Z</time>
      </trkpt>
      <trkpt lat="44.3387" lon="-1.08001">
        <ele>31</ele>
        <time>2018-09-03T18:21:11.616Z</time>
      </trkpt>
      <trkpt lat="44.33783" lon="-1.08169">
        <ele>28</ele>
        <time>2018-09-03T18:21:13.998Z</time>
      </trkpt>
      <trkpt lat="44.33786" lon="-1.08219">
        <ele>27</ele>
        <time>2018-09-03T18:21:14.572Z</time>
      </trkpt>
      <trkpt lat="44.33751" lon="-1.08238">
        <ele>26</ele>
        <time>2018-09-03T18:21:15.171Z</time>
      </trkpt>
      <trkpt lat="44.33719" lon="-1.08268">
        <ele>24</ele>
        <time>2018-09-03T18:21:15.784Z</time>
      </trkpt>
      <trkpt lat="44.33646" lon="-1.0838">
        <ele>25</ele>
        <time>2018-09-03T18:21:17.523Z</time>
      </trkpt>
      <trkpt lat="44.33569" lon="-1.08472">
        <ele>27</ele>
        <time>2018-09-03T18:21:19.149Z</time>
      </trkpt>
      <trkpt lat="44.33386" lon="-1.08567">
        <ele>30</ele>
        <time>2018-09-03T18:21:22.285Z</time>
      </trkpt>
      <trkpt lat="44.33382" lon="-1.08588">
        <ele>30</ele>
        <time>2018-09-03T18:21:22.526Z</time>
      </trkpt>
      <trkpt lat="44.33381" lon="-1.08588">
        <ele>30</ele>
        <time>2018-09-03T18:21:22.544Z</time>
      </trkpt>
      <trkpt lat="44.33272" lon="-1.08691">
        <ele>29</ele>
        <time>2018-09-03T18:21:24.659Z</time>
      </trkpt>
      <trkpt lat="44.33134" lon="-1.08846">
        <ele>33</ele>
        <time>2018-09-03T18:21:27.492Z</time>
      </trkpt>
      <trkpt lat="44.33104" lon="-1.08862">
        <ele>33</ele>
        <time>2018-09-03T18:21:28.000Z</time>
      </trkpt>
      <trkpt lat="44.33096" lon="-1.08877">
        <ele>33</ele>
        <time>2018-09-03T18:21:28.225Z</time>
      </trkpt>
      <trkpt lat="44.33101" lon="-1.08889">
        <ele>33</ele>
        <time>2018-09-03T18:21:28.385Z</time>
      </trkpt>
      <trkpt lat="44.32832" lon="-1.09182">
        <ele>36</ele>
        <time>2018-09-03T18:21:33.851Z</time>
      </trkpt>
      <trkpt lat="44.32745" lon="-1.09423">
        <ele>31</ele>
        <time>2018-09-03T18:21:36.952Z</time>
      </trkpt>
      <trkpt lat="44.32745" lon="-1.09423">
        <ele>31</ele>
        <time>2018-09-03T18:21:36.952Z</time>
      </trkpt>
      <trkpt lat="44.32696" lon="-1.09568">
        <ele>32</ele>
        <time>2018-09-03T18:21:38.788Z</time>
      </trkpt>
      <trkpt lat="44.32658" lon="-1.09644">
        <ele>35</ele>
        <time>2018-09-03T18:21:39.854Z</time>
      </trkpt>
      <trkpt lat="44.32509" lon="-1.09794">
        <ele>37</ele>
        <time>2018-09-03T18:21:42.801Z</time>
      </trkpt>
      <trkpt lat="44.32275" lon="-1.10421">
        <ele>38</ele>
        <time>2018-09-03T18:21:50.908Z</time>
      </trkpt>
      <trkpt lat="44.32257" lon="-1.10568">
        <ele>36</ele>
        <time>2018-09-03T18:21:52.625Z</time>
      </trkpt>
      <trkpt lat="44.32257" lon="-1.10568">
        <ele>36</ele>
        <time>2018-09-03T18:21:52.625Z</time>
      </trkpt>
      <trkpt lat="44.32244" lon="-1.10818">
        <ele>37</ele>
        <time>2018-09-03T18:21:55.500Z</time>
      </trkpt>
      <trkpt lat="44.32197" lon="-1.1115">
        <ele>33</ele>
        <time>2018-09-03T18:21:59.383Z</time>
      </trkpt>
      <trkpt lat="44.32161" lon="-1.11351">
        <ele>32</ele>
        <time>2018-09-03T18:22:01.757Z</time>
      </trkpt>
      <trkpt lat="44.3214" lon="-1.11575">
        <ele>33</ele>
        <time>2018-09-03T18:22:04.344Z</time>
      </trkpt>
      <trkpt lat="44.3222" lon="-1.12195">
        <ele>36</ele>
        <time>2018-09-03T18:22:11.572Z</time>
      </trkpt>
      <trkpt lat="44.32228" lon="-1.123">
        <ele>38</ele>
        <time>2018-09-03T18:22:12.784Z</time>
      </trkpt>
      <trkpt lat="44.32246" lon="-1.12816">
        <ele>30</ele>
        <time>2018-09-03T18:22:18.716Z</time>
      </trkpt>
      <trkpt lat="44.3225" lon="-1.1316">
        <ele>31</ele>
        <time>2018-09-03T18:22:22.654Z</time>
      </trkpt>
      <trkpt lat="44.3225" lon="-1.1316">
        <ele>31</ele>
        <time>2018-09-03T18:22:22.654Z</time>
      </trkpt>
      <trkpt lat="44.32282" lon="-1.13357">
        <ele>29</ele>
        <time>2018-09-03T18:22:24.974Z</time>
      </trkpt>
      <trkpt lat="44.32302" lon="-1.13358">
        <ele>29</ele>
        <time>2018-09-03T18:22:25.301Z</time>
      </trkpt>
      <trkpt lat="44.32306" lon="-1.13393">
        <ele>29</ele>
        <time>2018-09-03T18:22:25.699Z</time>
      </trkpt>
      <trkpt lat="44.3238" lon="-1.13357">
        <ele>31</ele>
        <time>2018-09-03T18:22:26.953Z</time>
      </trkpt>
      <trkpt lat="44.32396" lon="-1.13361">
        <ele>31</ele>
        <time>2018-09-03T18:22:27.215Z</time>
      </trkpt>
      <trkpt lat="44.32396" lon="-1.13361">
        <ele>31</ele>
        <time>2018-09-03T18:22:27.216Z</time>
      </trkpt>
      <trkpt lat="44.32426" lon="-1.13373">
        <ele>32</ele>
        <time>2018-09-03T18:22:27.716Z</time>
      </trkpt>
      <trkpt lat="44.32467" lon="-1.13366">
        <ele>32</ele>
        <time>2018-09-03T18:22:28.374Z</time>
      </trkpt>
      <trkpt lat="44.3247" lon="-1.13375">
        <ele>32</ele>
        <time>2018-09-03T18:22:28.481Z</time>
      </trkpt>
      <trkpt lat="44.32512" lon="-1.13486">
        <ele>34</ele>
        <time>2018-09-03T18:22:29.924Z</time>
      </trkpt>
      <trkpt lat="44.32512" lon="-1.13661">
        <ele>35</ele>
        <time>2018-09-03T18:22:31.930Z</time>
      </trkpt>
      <trkpt lat="44.32593" lon="-1.13866">
        <ele>31</ele>
        <time>2018-09-03T18:22:34.611Z</time>
      </trkpt>
      <trkpt lat="44.32619" lon="-1.14183">
        <ele>27</ele>
        <time>2018-09-03T18:22:38.271Z</time>
      </trkpt>
      <trkpt lat="44.32659" lon="-1.14347">
        <ele>26</ele>
        <time>2018-09-03T18:22:40.261Z</time>
      </trkpt>
      <trkpt lat="44.32678" lon="-1.14424">
        <ele>27</ele>
        <time>2018-09-03T18:22:41.191Z</time>
      </trkpt>
      <trkpt lat="44.32677" lon="-1.14452">
        <ele>27</ele>
        <time>2018-09-03T18:22:41.518Z</time>
      </trkpt>
      <trkpt lat="44.32663" lon="-1.14493">
        <ele>26</ele>
        <time>2018-09-03T18:22:42.036Z</time>
      </trkpt>
      <trkpt lat="44.32639" lon="-1.14531">
        <ele>26</ele>
        <time>2018-09-03T18:22:42.630Z</time>
      </trkpt>
      <trkpt lat="44.32636" lon="-1.14565">
        <ele>26</ele>
        <time>2018-09-03T18:22:43.020Z</time>
      </trkpt>
      <trkpt lat="44.32648" lon="-1.14592">
        <ele>26</ele>
        <time>2018-09-03T18:22:43.386Z</time>
      </trkpt>
      <trkpt lat="44.32656" lon="-1.14648">
        <ele>27</ele>
        <time>2018-09-03T18:22:44.043Z</time>
      </trkpt>
      <trkpt lat="44.32649" lon="-1.14679">
        <ele>27</ele>
        <time>2018-09-03T18:22:44.411Z</time>
      </trkpt>
      <trkpt lat="44.32565" lon="-1.14664">
        <ele>24</ele>
        <time>2018-09-03T18:22:45.764Z</time>
      </trkpt>
      <trkpt lat="44.32541" lon="-1.14666">
        <ele>24</ele>
        <time>2018-09-03T18:22:46.143Z</time>
      </trkpt>
      <trkpt lat="44.32532" lon="-1.14672">
        <ele>25</ele>
        <time>2018-09-03T18:22:46.312Z</time>
      </trkpt>
      <trkpt lat="44.3251" lon="-1.14689">
        <ele>25</ele>
        <time>2018-09-03T18:22:46.708Z</time>
      </trkpt>
      <trkpt lat="44.32508" lon="-1.14691">
        <ele>25</ele>
        <time>2018-09-03T18:22:46.750Z</time>
      </trkpt>
      <trkpt lat="44.32494" lon="-1.14702">
        <ele>28</ele>
        <time>2018-09-03T18:22:47.013Z</time>
      </trkpt>
      <trkpt lat="44.32281" lon="-1.14846">
        <ele>36</ele>
        <time>2018-09-03T18:22:50.799Z</time>
      </trkpt>
      <trkpt lat="44.32102" lon="-1.14931">
        <ele>35</ele>
        <time>2018-09-03T18:22:53.829Z</time>
      </trkpt>
      <trkpt lat="44.32065" lon="-1.14949">
        <ele>36</ele>
        <time>2018-09-03T18:22:54.468Z</time>
      </trkpt>
      <trkpt lat="44.31714" lon="-1.15141">
        <ele>35</ele>
        <time>2018-09-03T18:23:00.498Z</time>
      </trkpt>
      <trkpt lat="44.31573" lon="-1.15219">
        <ele>32</ele>
        <time>2018-09-03T18:23:02.929Z</time>
      </trkpt>
      <trkpt lat="44.31551" lon="-1.15233">
        <ele>31</ele>
        <time>2018-09-03T18:23:03.327Z</time>
      </trkpt>
      <trkpt lat="44.31504" lon="-1.15263">
        <ele>28</ele>
        <time>2018-09-03T18:23:04.140Z</time>
      </trkpt>
      <trkpt lat="44.3142" lon="-1.15348">
        <ele>30</ele>
        <time>2018-09-03T18:23:05.807Z</time>
      </trkpt>
      <trkpt lat="44.31281" lon="-1.15465">
        <ele>31</ele>
        <time>2018-09-03T18:23:08.410Z</time>
      </trkpt>
      <trkpt lat="44.31034" lon="-1.15655">
        <ele>32</ele>
        <time>2018-09-03T18:23:12.931Z</time>
      </trkpt>
      <trkpt lat="44.3093" lon="-1.15736">
        <ele>34</ele>
        <time>2018-09-03T18:23:14.841Z</time>
      </trkpt>
      <trkpt lat="44.30551" lon="-1.16142">
        <ele>37</ele>
        <time>2018-09-03T18:23:22.494Z</time>
      </trkpt>
      <trkpt lat="44.30335" lon="-1.16376">
        <ele>39</ele>
        <time>2018-09-03T18:23:26.884Z</time>
      </trkpt>
      <trkpt lat="44.30189" lon="-1.16534">
        <ele>35</ele>
        <time>2018-09-03T18:23:29.838Z</time>
      </trkpt>
      <trkpt lat="44.30071" lon="-1.16662">
        <ele>33</ele>
        <time>2018-09-03T18:23:32.241Z</time>
      </trkpt>
      <trkpt lat="44.3" lon="-1.16736">
        <ele>37</ele>
        <time>2018-09-03T18:23:33.652Z</time>
      </trkpt>
      <trkpt lat="44.29961" lon="-1.16763">
        <ele>39</ele>
        <time>2018-09-03T18:23:34.359Z</time>
      </trkpt>
      <trkpt lat="44.29543" lon="-1.16878">
        <ele>39</ele>
        <time>2018-09-03T18:23:41.187Z</time>
      </trkpt>
      <trkpt lat="44.29422" lon="-1.16959">
        <ele>38</ele>
        <time>2018-09-03T18:23:43.336Z</time>
      </trkpt>
      <trkpt lat="44.28916" lon="-1.17301">
        <ele>33</ele>
        <time>2018-09-03T18:23:52.352Z</time>
      </trkpt>
      <trkpt lat="44.28919" lon="-1.17308">
        <ele>33</ele>
        <time>2018-09-03T18:23:52.452Z</time>
      </trkpt>
      <trkpt lat="44.28749" lon="-1.17428">
        <ele>33</ele>
        <time>2018-09-03T18:23:55.515Z</time>
      </trkpt>
      <trkpt lat="44.28677" lon="-1.17479">
        <ele>32</ele>
        <time>2018-09-03T18:23:56.805Z</time>
      </trkpt>
      <trkpt lat="44.28677" lon="-1.17479">
        <ele>32</ele>
        <time>2018-09-03T18:23:56.805Z</time>
      </trkpt>
      <trkpt lat="44.28423" lon="-1.17649">
        <ele>33</ele>
        <time>2018-09-03T18:24:01.325Z</time>
      </trkpt>
      <trkpt lat="44.28423" lon="-1.17649">
        <ele>33</ele>
        <time>2018-09-03T18:24:01.325Z</time>
      </trkpt>
      <trkpt lat="44.27938" lon="-1.17976">
        <ele>35</ele>
        <time>2018-09-03T18:24:09.962Z</time>
      </trkpt>
      <trkpt lat="44.27913" lon="-1.17976">
        <ele>35</ele>
        <time>2018-09-03T18:24:10.358Z</time>
      </trkpt>
      <trkpt lat="44.27842" lon="-1.18032">
        <ele>32</ele>
        <time>2018-09-03T18:24:11.666Z</time>
      </trkpt>
      <trkpt lat="44.27706" lon="-1.18143">
        <ele>32</ele>
        <time>2018-09-03T18:24:14.180Z</time>
      </trkpt>
      <trkpt lat="44.27614" lon="-1.18205">
        <ele>31</ele>
        <time>2018-09-03T18:24:15.830Z</time>
      </trkpt>
      <trkpt lat="44.27553" lon="-1.18232">
        <ele>30</ele>
        <time>2018-09-03T18:24:16.851Z</time>
      </trkpt>
      <trkpt lat="44.27477" lon="-1.1827">
        <ele>29</ele>
        <time>2018-09-03T18:24:18.138Z</time>
      </trkpt>
      <trkpt lat="44.27363" lon="-1.18351">
        <ele>29</ele>
        <time>2018-09-03T18:24:20.203Z</time>
      </trkpt>
      <trkpt lat="44.27346" lon="-1.18366">
        <ele>29</ele>
        <time>2018-09-03T18:24:20.517Z</time>
      </trkpt>
      <trkpt lat="44.27329" lon="-1.18368">
        <ele>28</ele>
        <time>2018-09-03T18:24:20.785Z</time>
      </trkpt>
      <trkpt lat="44.27319" lon="-1.18369">
        <ele>28</ele>
        <time>2018-09-03T18:24:20.949Z</time>
      </trkpt>
      <trkpt lat="44.27293" lon="-1.18351">
        <ele>27</ele>
        <time>2018-09-03T18:24:21.417Z</time>
      </trkpt>
      <trkpt lat="44.27255" lon="-1.18347">
        <ele>27</ele>
        <time>2018-09-03T18:24:22.030Z</time>
      </trkpt>
      <trkpt lat="44.27202" lon="-1.1838">
        <ele>25</ele>
        <time>2018-09-03T18:24:22.955Z</time>
      </trkpt>
      <trkpt lat="44.27183" lon="-1.18391">
        <ele>25</ele>
        <time>2018-09-03T18:24:23.280Z</time>
      </trkpt>
      <trkpt lat="44.2715" lon="-1.18392">
        <ele>25</ele>
        <time>2018-09-03T18:24:23.822Z</time>
      </trkpt>
      <trkpt lat="44.27094" lon="-1.18397">
        <ele>25</ele>
        <time>2018-09-03T18:24:24.710Z</time>
      </trkpt>
      <trkpt lat="44.26612" lon="-1.18405">
        <ele>32</ele>
        <time>2018-09-03T18:24:32.442Z</time>
      </trkpt>
      <trkpt lat="44.2642" lon="-1.18418">
        <ele>30</ele>
        <time>2018-09-03T18:24:35.533Z</time>
      </trkpt>
      <trkpt lat="44.26293" lon="-1.1843">
        <ele>27</ele>
        <time>2018-09-03T18:24:37.568Z</time>
      </trkpt>
      <trkpt lat="44.26201" lon="-1.18439">
        <ele>25</ele>
        <time>2018-09-03T18:24:39.042Z</time>
      </trkpt>
      <trkpt lat="44.26201" lon="-1.18439">
        <ele>25</ele>
        <time>2018-09-03T18:24:39.042Z</time>
      </trkpt>
      <trkpt lat="44.26157" lon="-1.18433">
        <ele>25</ele>
        <time>2018-09-03T18:24:39.760Z</time>
      </trkpt>
      <trkpt lat="44.25963" lon="-1.18368">
        <ele>25</ele>
        <time>2018-09-03T18:24:42.953Z</time>
      </trkpt>
      <trkpt lat="44.25963" lon="-1.18368">
        <ele>25</ele>
        <time>2018-09-03T18:24:42.953Z</time>
      </trkpt>
      <trkpt lat="44.25866" lon="-1.18336">
        <ele>24</ele>
        <time>2018-09-03T18:24:44.553Z</time>
      </trkpt>
      <trkpt lat="44.25866" lon="-1.18336">
        <ele>24</ele>
        <time>2018-09-03T18:24:44.553Z</time>
      </trkpt>
      <trkpt lat="44.2545" lon="-1.18198">
        <ele>24</ele>
        <time>2018-09-03T18:24:51.412Z</time>
      </trkpt>
      <trkpt lat="44.25404" lon="-1.18299">
        <ele>25</ele>
        <time>2018-09-03T18:24:52.786Z</time>
      </trkpt>
      <trkpt lat="44.25375" lon="-1.18484">
        <ele>25</ele>
        <time>2018-09-03T18:24:54.959Z</time>
      </trkpt>
      <trkpt lat="44.25372" lon="-1.18594">
        <ele>21</ele>
        <time>2018-09-03T18:24:56.223Z</time>
      </trkpt>
      <trkpt lat="44.25382" lon="-1.18824">
        <ele>20</ele>
        <time>2018-09-03T18:24:58.864Z</time>
      </trkpt>
      <trkpt lat="44.25347" lon="-1.18956">
        <ele>23</ele>
        <time>2018-09-03T18:25:00.489Z</time>
      </trkpt>
    </trkseg>
  </trk>
</gpx>